Data for 09/26/2011

Time Sea-Level Adjusted Pressure Absolute Pressure Temperature Relative Humidity Dew Point Precipitation   
(mb) (inHg) (mb) (inHg) (C) (F) (%) (C) (F) (mm) (in)
00:01 1015 29.97 844 24.92 16.3 61.3 33 0.3 32.6 -86.3 -3.398
00:02 1015 29.97 844 24.92 16.2 61.1 33 0.1 32.1 -86.3 -3.398
00:03 1015 29.97 844 24.92 16.2 61.2 33 0.2 32.4 -86.3 -3.398
00:04 1015 29.97 844 24.92 16.2 61.1 35 0.6 33.2 -86.3 -3.398
00:05 1015 29.97 844 24.92 16 60.7 35 0.5 33 -86.4 -3.402
00:06 1015 29.97 844 24.92 15.8 60.5 35 0.5 32.9 -86.4 -3.402
00:07 1015 29.97 844 24.92 15.8 60.4 35 0.5 32.9 -86.4 -3.402
00:08 1015 29.97 844 24.92 15.7 60.3 35 0.5 32.9 -86.4 -3.402
00:09 1015 29.97 844 24.92 15.7 60.2 35 0.5 32.9 -86.5 -3.406
00:10 1015 29.97 844 24.92 15.6 60.1 35 0.5 32.9 -86.5 -3.406
00:11 1015 29.97 844 24.92 15.6 60.1 35 0.4 32.8 -86.5 -3.406
00:12 1015 29.97 844 24.92 15.5 60 36 0.5 32.9 -86.5 -3.406
00:13 1015 29.97 844 24.92 15.5 59.9 35 0.3 32.6 -86.5 -3.406
00:14 1015 29.97 844 24.92 15.4 59.8 36 0.4 32.7 -86.5 -3.406
00:15 1015 29.97 844 24.92 15.4 59.8 36 0.4 32.7 -86.5 -3.406
00:16 1015 29.97 844 24.92 15.5 59.8 35 0.4 32.6 -86.6 -3.409
00:17 1015 29.97 844 24.92 15.5 59.8 36 0.4 32.7 -86.6 -3.409
00:18 1015 29.97 844 24.92 15.5 60 35 0.4 32.7 -86.6 -3.409
00:19 1015 29.97 844 24.92 15.6 60 36 0.6 33.1 -86.6 -3.409
00:20 1015 29.97 844 24.92 15.5 59.9 36 0.8 33.4 -86.7 -3.413
00:21 1015 29.97 844 24.92 15.3 59.6 38 1.1 33.9 -86.7 -3.413
00:22 1015 29.97 844 24.92 15.1 59.1 38 1 33.9 -86.7 -3.413
00:23 1015 29.97 844 24.92 14.8 58.6 38 0.9 33.6 -86.7 -3.413
00:24 1015 29.97 844 24.92 14.7 58.5 39 0.9 33.6 -86.7 -3.413
00:25 1015 29.97 844 24.92 14.7 58.4 38 0.7 33.3 -86.7 -3.413
00:26 1015 29.97 844 24.92 14.7 58.5 39 1 33.7 -86.7 -3.413
00:27 1015 29.97 844 24.92 14.7 58.4 39 1 33.8 -86.7 -3.413
00:28 1015 29.97 844 24.92 14.7 58.4 39 1.1 33.9 -86.7 -3.413
00:29 1015 29.97 844 24.92 14.7 58.4 40 1.3 34.4 -86.7 -3.413
00:30 1015 29.97 844 24.92 14.5 58 41 1.5 34.7 -86.8 -3.417
00:31 1015 29.97 844 24.92 14.4 57.8 41 1.4 34.5 -86.8 -3.417
00:32 1015 29.97 844 24.92 14.3 57.7 41 1.2 34.2 -86.8 -3.417
00:33 1015 29.97 844 24.92 14.4 57.9 41 1.2 34.2 -86.8 -3.417
00:34 1015 29.97 844 24.92 14.4 57.9 40 1.2 34.2 -86.9 -3.421
00:35 1015 29.97 844 24.92 14.4 58 40 1.2 34.2 -86.9 -3.421
00:36 1015 29.97 844 24.92 14.5 58 40 0.9 33.7 -86.9 -3.421
00:37 1015 29.97 844 24.92 14.6 58.3 39 1 33.8 -86.9 -3.421
00:38 1015 29.97 844 24.92 14.7 58.4 39 1 33.8 -86.9 -3.421
00:39 1015 29.97 844 24.92 14.7 58.5 39 0.9 33.6 -86.9 -3.421
00:40 1015 29.97 844 24.92 14.8 58.7 38 0.7 33.3 -86.9 -3.421
00:41 1015 29.97 844 24.92 15 59 37 0.5 32.9 -86.9 -3.421
00:42 1015 29.97 844 24.92 15.2 59.3 37 0.5 32.9 -87 -3.425
00:43 1015 29.97 844 24.92 15.4 59.6 36 0.6 33.1 -87 -3.425
00:44 1015 29.97 844 24.92 15.5 59.8 36 0.7 33.3 -87 -3.425
00:45 1015 29.97 844 24.92 15.5 59.9 37 0.8 33.5 -87 -3.425
00:46 1015 29.97 844 24.92 15.5 59.8 37 0.8 33.4 -87 -3.425
00:47 1015 29.97 844 24.92 15.4 59.8 37 0.9 33.6 -87 -3.425
00:48 1015 29.97 844 24.92 15.4 59.6 37 1 33.7 -87.1 -3.429
00:49 1015 29.97 844 24.92 15.3 59.6 38 1.3 34.4 -87.1 -3.429
00:50 1015 29.97 844 24.92 15.2 59.3 40 1.7 35.1 -87.1 -3.429
00:51 1015 29.97 844 24.92 14.9 58.8 41 1.9 35.5 -87.1 -3.429
00:52 1015 29.97 844 24.92 14.6 58.4 42 2 35.5 -87.1 -3.429
00:53 1015 29.97 844 24.92 14.4 57.9 43 2.1 35.8 -87.1 -3.429
00:54 1015 29.97 844 24.92 14.2 57.6 43 2 35.7 -87.1 -3.429
00:55 1015 29.97 844 24.92 14.1 57.4 43 1.9 35.4 -87.1 -3.429
00:56 1015 29.97 844 24.92 14.1 57.3 44 2.1 35.7 -87.2 -3.433
00:57 1015 29.97 844 24.92 14 57.2 43 1.9 35.4 -87.2 -3.433
00:58 1015 29.97 844 24.92 14.1 57.3 43 1.6 35 -87.2 -3.433
00:59 1015 29.97 844 24.92 14.2 57.5 43 1.8 35.2 -87.2 -3.433
01:00 1015 29.97 844 24.92 14.2 57.6 43 1.8 35.3 -87.2 -3.433
01:01 1015 29.97 844 24.92 14.2 57.6 42 1.6 34.8 -87.2 -3.433
01:02 1015 29.97 844 24.92 14.3 57.8 42 1.6 34.9 -87.2 -3.433
01:03 1015 29.97 844 24.92 14.4 57.9 42 1.7 35 -87.2 -3.433
01:04 1015 29.97 844 24.92 14.5 58.1 42 1.7 35 -87.2 -3.433
01:05 1015 29.97 844 24.92 14.5 58.2 42 1.9 35.5 -87.2 -3.433
01:06 1015 29.97 844 24.92 14.5 58.2 43 2.2 36 -87.2 -3.433
01:07 1015 29.97 844 24.92 14.4 57.9 45 2.8 37.1 -87.2 -3.433
01:08 1015 29.97 844 24.92 14.1 57.5 48 3.5 38.3 -87.2 -3.433
01:09 1015 29.97 844 24.92 13.8 56.8 50 3.7 38.7 -87.2 -3.433
01:10 1015 29.97 844 24.92 13.5 56.2 50 3.5 38.2 -87.2 -3.433
01:11 1015 29.97 844 24.92 13.2 55.8 50 3.2 37.7 -87.2 -3.433
01:12 1015 29.97 844 24.92 13.1 55.6 50 3.1 37.6 -87.2 -3.433
01:13 1015 29.97 844 24.92 13.1 55.5 51 3.2 37.8 -87.2 -3.433
01:14 1015 29.97 844 24.92 13.1 55.5 51 3.3 37.9 -87.2 -3.433
01:15 1015 29.97 844 24.92 13.1 55.5 50 3.1 37.5 -87.3 -3.437
01:16 1015 29.97 844 24.92 13.1 55.6 50 3 37.4 -87.3 -3.437
01:17 1015 29.97 844 24.92 13.2 55.7 49 2.7 36.8 -87.3 -3.437
01:18 1015 29.97 844 24.92 13.3 55.9 47 2.2 36 -87.2 -3.433
01:19 1015 29.97 845 24.95 13.5 56.3 45 1.8 35.2 -87.3 -3.437
01:20 1015 29.97 845 24.95 13.9 57 43 1.5 34.8 -87.3 -3.437
01:21 1015 29.97 845 24.95 14.4 57.9 42 1.7 35 -87.3 -3.437
01:22 1015 29.97 845 24.95 14.8 58.6 40 1.3 34.4 -87.3 -3.437
01:23 1015 29.97 845 24.95 15.1 59.1 39 1.1 34.1 -87.3 -3.437
01:24 1015 29.97 845 24.95 15.4 59.6 38 1.4 34.5 -87.3 -3.437
01:25 1016 30 845 24.95 15.6 60.1 38 1.4 34.6 -87.3 -3.437
01:26 1016 30 845 24.95 15.8 60.4 37 1.2 34.2 -87.3 -3.437
01:27 1016 30 845 24.95 16 60.8 35 0.8 33.4 -87.3 -3.437
01:28 1016 30 845 24.95 16.4 61.5 33 0.3 32.5 -87.3 -3.437
01:29 1016 30 845 24.95 16.7 62.1 32 0.1 32.3 -87.2 -3.433
01:30 1016 30 845 24.95 17.4 63.3 31 0.3 32.5 -87.2 -3.433
01:31 1016 30 845 24.95 18.4 65 28 -0.1 31.8 -87.2 -3.433
01:32 1016 30 845 24.95 19.4 66.9 28 0.5 33 -87.2 -3.433
01:33 1016 30 845 24.95 19.9 67.8 27 0.4 32.8 -87.3 -3.437
01:34 1016 30 845 24.95 20.1 68.3 27 0.6 33.2 -87.3 -3.437
01:35 1016 30 845 24.95 20.1 68.3 27 0.7 33.2 -87.3 -3.437
01:36 1016 30 845 24.95 20.2 68.3 28 1.1 34 -87.3 -3.437
01:37 1016 30 845 24.95 20 68 28 1.2 34.1 -87.3 -3.437
01:38 1016 30 845 24.95 19.9 67.9 28 0.9 33.6 -87.3 -3.437
01:39 1016 30 845 24.95 19.9 67.8 28 1.1 34 -87.3 -3.437
01:40 1016 30 845 24.95 19.8 67.6 29 1.3 34.3 -87.3 -3.437
01:41 1016 30 845 24.95 19.8 67.6 29 1.3 34.4 -87.2 -3.433
01:42 1016 30 845 24.95 19.7 67.5 29 1.4 34.5 -87.2 -3.433
01:43 1016 30 845 24.95 19.5 67.1 29 1.1 34.1 -87.2 -3.433
01:44 1016 30 845 24.95 19.3 66.7 29 1.2 34.1 -87.2 -3.433
01:45 1016 30 845 24.95 19.1 66.5 31 1.6 34.9 -87.2 -3.433
01:46 1016 30 845 24.95 18.9 66.1 30 1.2 34.1 -87.2 -3.433
01:47 1016 30 845 24.95 18.9 65.9 31 1.3 34.4 -87.2 -3.433
01:48 1016 30 845 24.95 18.9 65.9 30 1.2 34.2 -87.2 -3.433
01:49 1016 30 845 24.95 18.8 65.9 31 1.6 34.9 -87.2 -3.433
01:50 1016 30 845 24.95 18.7 65.6 32 1.8 35.3 -87.2 -3.433
01:51 1016 30 845 24.95 18.5 65.2 33 1.8 35.3 -87.1 -3.429
01:52 1016 30 845 24.95 18.3 64.9 33 1.9 35.4 -87.1 -3.429
01:53 1016 30 845 24.95 18.2 64.7 33 1.7 35 -87.1 -3.429
01:54 1016 30 845 24.95 18.2 64.7 32 1.4 34.5 -87.1 -3.429
01:55 1016 30 845 24.95 18.3 65 32 1.5 34.6 -87.1 -3.429
01:56 1016 30 845 24.95 18.5 65.3 32 1.8 35.3 -87 -3.425
01:57 1016 30 845 24.95 18.5 65.3 32 1.8 35.2 -87 -3.425
01:58 1016 30 845 24.95 18.6 65.5 33 2 35.6 -87 -3.425
01:59 1016 30 845 24.95 18.7 65.7 33 2.1 35.8 -87 -3.425
02:00 1016 30 845 24.95 18.8 65.8 33 2.3 36.1 -87 -3.425
02:01 1016 30 845 24.95 18.8 65.8 33 2.3 36.2 -87 -3.425
02:02 1016 30 845 24.95 18.7 65.7 33 2.1 35.8 -87 -3.425
02:03 1016 30 845 24.95 18.7 65.7 31 1.6 34.9 -87 -3.425
02:04 1016 30 845 24.95 18.9 65.9 32 1.8 35.2 -87 -3.425
02:05 1016 30 846 24.98 19 66.2 32 2.2 36 -87 -3.425
02:06 1016 30 846 24.98 19 66.1 32 1.8 35.3 -87 -3.425
02:07 1016 30 846 24.98 18.9 66.1 32 2.1 35.7 -87 -3.425
02:08 1016 30 846 24.98 18.9 66 32 2.2 35.9 -86.9 -3.421
02:09 1016 30 846 24.98 18.8 65.8 33 2.3 36.1 -86.9 -3.421
02:10 1016 30 846 24.98 18.7 65.6 33 2.1 35.7 -86.9 -3.421
02:11 1016 30 846 24.98 18.6 65.5 33 2.2 36 -86.9 -3.421
02:12 1016 30 846 24.98 18.6 65.5 31 1.5 34.7 -86.9 -3.421
02:13 1016 30 846 24.98 18.7 65.6 32 1.9 35.5 -86.9 -3.421
02:14 1016 30 846 24.98 18.7 65.6 31 1.6 34.8 -86.9 -3.421
02:15 1016 30 846 24.98 18.8 65.8 31 1.3 34.3 -86.9 -3.421
02:16 1017 30.03 846 24.98 19 66.3 30 1.3 34.4 -86.9 -3.421
02:17 1017 30.03 846 24.98 19.2 66.6 30 1.4 34.4 -86.9 -3.421
02:18 1017 30.03 846 24.98 19.3 66.8 30 1.6 35 -86.9 -3.421
02:19 1017 30.03 846 24.98 19.4 66.8 30 1.5 34.7 -86.8 -3.417
02:20 1017 30.03 846 24.98 19.4 66.8 29 1.2 34.1 -86.8 -3.417
02:21 1017 30.03 846 24.98 19.5 67.1 30 1.5 34.6 -86.8 -3.417
02:22 1017 30.03 846 24.98 19.5 67.1 30 1.6 34.8 -86.8 -3.417
02:23 1017 30.03 846 24.98 19.6 67.2 29 1.5 34.6 -86.8 -3.417
02:24 1017 30.03 846 24.98 19.7 67.4 30 1.6 34.9 -86.8 -3.417
02:25 1017 30.03 846 24.98 19.7 67.5 30 1.6 34.9 -86.8 -3.417
02:26 1017 30.03 846 24.98 19.7 67.5 30 1.7 35.1 -86.8 -3.417
02:27 1017 30.03 846 24.98 19.8 67.6 30 1.6 34.9 -86.8 -3.417
02:28 1017 30.03 846 24.98 19.7 67.5 30 1.9 35.4 -86.8 -3.417
02:29 1017 30.03 846 24.98 19.7 67.4 31 2.1 35.8 -86.7 -3.413
02:30 1017 30.03 846 24.98 19.5 67.1 31 1.9 35.4 -86.7 -3.413
02:31 1017 30.03 846 24.98 19.5 67.1 31 2.2 35.9 -86.7 -3.413
02:32 1017 30.03 846 24.98 19.3 66.8 32 2.3 36.1 -86.7 -3.413
02:33 1017 30.03 846 24.98 19.3 66.7 31 1.9 35.4 -86.7 -3.413
02:34 1017 30.03 846 24.98 19.3 66.7 31 2 35.7 -86.7 -3.413
02:35 1017 30.03 846 24.98 19.2 66.6 31 1.7 35.1 -86.7 -3.413
02:36 1017 30.03 846 24.98 19.3 66.8 31 1.9 35.4 -86.7 -3.413
02:37 1017 30.03 846 24.98 19.4 66.8 31 1.9 35.5 -86.7 -3.413
02:38 1017 30.03 846 24.98 19.4 66.9 31 1.9 35.4 -86.7 -3.413
02:39 1017 30.03 846 24.98 19.4 66.9 31 2.1 35.8 -86.7 -3.413
02:40 1017 30.03 846 24.98 19.3 66.8 31 2.1 35.9 -86.7 -3.413
02:41 1017 30.03 846 24.98 19.3 66.7 32 2.1 35.8 -86.7 -3.413
02:42 1017 30.03 846 24.98 19.2 66.6 31 1.8 35.2 -86.8 -3.417
02:43 1017 30.03 846 24.98 19.3 66.7 31 1.7 35 -86.8 -3.417
02:44 1017 30.03 846 24.98 19.4 66.8 31 1.9 35.5 -86.8 -3.417
02:45 1017 30.03 846 24.98 19.4 66.9 31 2 35.6 -86.7 -3.413
02:46 1017 30.03 846 24.98 19.3 66.8 32 2.5 36.5 -86.7 -3.413
02:47 1017 30.03 846 24.98 19.3 66.7 32 2.4 36.3 -86.7 -3.413
02:48 1017 30.03 846 24.98 19.2 66.6 33 2.7 36.8 -86.7 -3.413
02:49 1017 30.03 846 24.98 19.2 66.5 33 2.6 36.8 -86.7 -3.413
02:50 1017 30.03 846 24.98 19 66.2 33 2.7 36.9 -86.7 -3.413
02:51 1017 30.03 846 24.98 18.9 66 33 2.4 36.4 -86.7 -3.413
02:52 1017 30.03 846 24.98 18.9 66 33 2.4 36.4 -86.7 -3.413
02:53 1017 30.03 846 24.98 18.8 65.8 33 2.3 36.1 -86.7 -3.413
02:54 1017 30.03 846 24.98 18.7 65.7 34 2.5 36.5 -86.6 -3.409
02:55 1017 30.03 846 24.98 18.6 65.6 34 2.8 37 -86.6 -3.409
02:56 1017 30.03 846 24.98 18.6 65.4 33 2.1 35.8 -86.6 -3.409
02:57 1017 30.03 846 24.98 18.7 65.6 33 2.2 36 -86.6 -3.409
02:58 1017 30.03 846 24.98 18.7 65.6 33 2.4 36.4 -86.6 -3.409
02:59 1017 30.03 846 24.98 18.6 65.5 34 2.6 36.7 -86.6 -3.409
03:00 1017 30.03 847 25.01 18.5 65.2 35 2.9 37.1 -86.6 -3.409
03:01 1017 30.03 846 24.98 18.3 65 35 2.6 36.8 -86.5 -3.406
03:02 1017 30.03 846 24.98 18.2 64.8 34 2.3 36.1 -86.6 -3.409
03:03 1017 30.03 846 24.98 18.3 64.9 34 2.4 36.4 -86.6 -3.409
03:04 1017 30.03 846 24.98 18.2 64.8 35 2.5 36.6 -86.6 -3.409
03:05 1017 30.03 846 24.98 18.1 64.7 35 2.7 36.9 -86.6 -3.409
03:06 1017 30.03 846 24.98 18 64.4 35 2.6 36.7 -86.5 -3.406
03:07 1017 30.03 847 25.01 17.9 64.1 36 2.6 36.6 -86.5 -3.406
03:08 1017 30.03 847 25.01 17.8 64.1 36 2.9 37.2 -86.5 -3.406
03:09 1017 30.03 847 25.01 17.8 64 35 2.5 36.4 -86.5 -3.406
03:10 1017 30.03 846 24.98 17.8 64.1 36 2.7 36.9 -86.5 -3.406
03:11 1017 30.03 847 25.01 17.8 64 36 2.5 36.5 -86.5 -3.406
03:12 1017 30.03 847 25.01 17.8 64 36 2.7 36.9 -86.6 -3.409
03:13 1017 30.03 847 25.01 17.7 63.9 37 2.8 37 -86.5 -3.406
03:14 1017 30.03 847 25.01 17.6 63.7 37 2.8 37 -86.5 -3.406
03:15 1017 30.03 847 25.01 17.5 63.5 37 2.7 36.9 -86.6 -3.409
03:16 1017 30.03 847 25.01 17.4 63.4 37 2.8 37.1 -86.6 -3.409
03:17 1017 30.03 847 25.01 17.3 63.2 38 3 37.5 -86.6 -3.409
03:18 1017 30.03 847 25.01 17.2 63 39 3.1 37.6 -86.6 -3.409
03:19 1017 30.03 847 25.01 17.1 62.8 39 3.1 37.6 -86.6 -3.409
03:20 1017 30.03 847 25.01 17 62.6 40 3.3 37.9 -86.6 -3.409
03:21 1017 30.03 847 25.01 16.9 62.4 40 3.3 37.9 -86.6 -3.409
03:22 1017 30.03 847 25.01 16.8 62.3 40 3.1 37.7 -86.6 -3.409
03:23 1017 30.03 847 25.01 16.8 62.2 40 3.2 37.8 -86.6 -3.409
03:24 1017 30.03 847 25.01 16.8 62.2 40 3.2 37.7 -86.6 -3.409
03:25 1017 30.03 847 25.01 16.7 62.1 40 3.3 38 -86.6 -3.409
03:26 1017 30.03 847 25.01 16.6 62 41 3.5 38.2 -86.6 -3.409
03:27 1017 30.03 847 25.01 16.6 61.9 41 3.5 38.3 -86.6 -3.409
03:28 1018 30.06 847 25.01 16.6 61.8 41 3.4 38.1 -86.6 -3.409
03:29 1017 30.03 847 25.01 16.5 61.8 40 3 37.4 -86.6 -3.409
03:30 1017 30.03 847 25.01 16.6 61.9 40 2.9 37.3 -86.6 -3.409
03:31 1018 30.06 847 25.01 16.7 62.1 40 3.2 37.7 -86.6 -3.409
03:32 1018 30.06 847 25.01 16.7 62.1 40 3.2 37.8 -86.6 -3.409
03:33 1018 30.06 847 25.01 16.7 62 41 3.3 38 -86.6 -3.409
03:34 1018 30.06 847 25.01 16.6 61.9 41 3.4 38 -86.6 -3.409
03:35 1018 30.06 847 25.01 16.6 61.8 40 3 37.5 -86.6 -3.409
03:36 1018 30.06 847 25.01 16.6 61.9 40 3.1 37.6 -86.6 -3.409
03:37 1018 30.06 847 25.01 16.6 62 40 3.2 37.8 -86.7 -3.413
03:38 1018 30.06 847 25.01 16.6 61.9 41 3.3 37.9 -86.7 -3.413
03:39 1018 30.06 847 25.01 16.6 61.8 40 3.2 37.8 -86.7 -3.413
03:40 1018 30.06 847 25.01 16.6 61.8 41 3.3 37.9 -86.7 -3.413
03:41 1018 30.06 847 25.01 16.5 61.8 41 3.5 38.2 -86.7 -3.413
03:42 1018 30.06 847 25.01 16.5 61.7 41 3.1 37.7 -86.7 -3.413
03:43 1018 30.06 847 25.01 16.5 61.7 41 3.3 37.9 -86.7 -3.413
03:44 1018 30.06 847 25.01 16.5 61.7 41 3.4 38.2 -86.7 -3.413
03:45 1018 30.06 847 25.01 16.5 61.6 41 3.4 38.2 -86.7 -3.413
03:46 1018 30.06 847 25.01 16.4 61.5 42 3.4 38.2 -86.8 -3.417
03:47 1018 30.06 847 25.01 16.4 61.4 42 3.6 38.4 -86.8 -3.417
03:48 1018 30.06 847 25.01 16.3 61.4 42 3.6 38.5 -86.8 -3.417
03:49 1018 30.06 847 25.01 16.3 61.3 43 3.9 39 -86.8 -3.417
03:50 1018 30.06 847 25.01 16.2 61.2 44 4 39.3 -86.8 -3.417
03:51 1018 30.06 847 25.01 16.1 61 44 3.9 39.1 -86.7 -3.413
03:52 1018 30.06 847 25.01 16 60.8 45 4.1 39.4 -86.5 -3.406
03:53 1018 30.06 847 25.01 15.9 60.7 45 4.1 39.4 -86.3 -3.398
03:54 1018 30.06 847 25.01 15.9 60.5 46 4.2 39.6 -86 -3.386
03:55 1018 30.06 847 25.01 15.8 60.4 46 4.4 39.9 -86.1 -3.39
03:56 1018 30.06 847 25.01 15.8 60.4 45 4.1 39.3 -86.1 -3.39
03:57 1018 30.06 847 25.01 15.9 60.6 46 4.5 40.1 -86.1 -3.39
03:58 1018 30.06 847 25.01 16.1 61 47 4.8 40.6 -86 -3.386
03:59 1018 30.06 847 25.01 16.3 61.3 48 5.4 41.7 -86.1 -3.39
04:00 1018 30.06 847 25.01 16.2 61.2 47 5 41 -86.3 -3.398
04:01 1018 30.06 847 25.01 16.2 61.1 48 5.3 41.5 -86.5 -3.406
04:02 1018 30.06 847 25.01 16.2 61.1 47 4.8 40.7 -86.6 -3.409
04:03 1018 30.06 847 25.01 16.2 61.2 46 4.7 40.5 -86.8 -3.417
04:04 1018 30.06 847 25.01 16.3 61.3 46 4.8 40.7 -86.9 -3.421
04:05 1018 30.06 847 25.01 16.3 61.3 47 5 41 -86.9 -3.421
04:06 1018 30.06 847 25.01 16.3 61.3 47 5 40.9 -86.9 -3.421
04:07 1018 30.06 847 25.01 16.3 61.3 47 5 41 -86.9 -3.421
04:08 1018 30.06 847 25.01 16.2 61.1 47 4.9 40.8 -86.9 -3.421
04:09 1018 30.06 847 25.01 16.1 60.9 48 5.1 41.1 -86.9 -3.421
04:10 1018 30.06 847 25.01 16 60.7 48 5 41.1 -86.9 -3.421
04:11 1018 30.06 847 25.01 15.9 60.5 47 4.5 40.2 -86.9 -3.421
04:12 1018 30.06 847 25.01 15.8 60.4 47 4.6 40.2 -86.9 -3.421
04:13 1018 30.06 847 25.01 15.6 60.1 46 4.2 39.5 -86.9 -3.421
04:14 1018 30.06 847 25.01 15.5 60 46 4.2 39.5 -86.9 -3.421
04:15 1018 30.06 847 25.01 15.4 59.8 47 4.4 39.9 -86.9 -3.421
04:16 1018 30.06 847 25.01 15.3 59.5 47 4.2 39.5 -86.9 -3.421
04:17 1018 30.06 847 25.01 15.2 59.3 47 4.1 39.4 -86.9 -3.421
04:18 1018 30.06 847 25.01 15 59.1 47 3.9 39 -86.9 -3.421
04:19 1018 30.06 847 25.01 14.9 58.9 48 4 39.2 -86.9 -3.421
04:20 1018 30.06 847 25.01 14.7 58.5 48 3.9 39.1 -86.9 -3.421
04:21 1018 30.06 847 25.01 14.6 58.2 49 4 39.2 -86.9 -3.421
04:22 1018 30.06 847 25.01 14.4 57.9 49 4 39.1 -86.9 -3.421
04:23 1018 30.06 847 25.01 14.2 57.6 49 3.9 39 -86.9 -3.421
04:24 1018 30.06 847 25.01 14.2 57.5 49 3.8 38.8 -86.9 -3.421
04:25 1018 30.06 847 25.01 14.1 57.4 50 3.8 38.9 -86.9 -3.421
04:26 1018 30.06 848 25.04 14.1 57.3 49 3.7 38.7 -87 -3.425
04:27 1018 30.06 848 25.04 14 57.2 50 3.7 38.7 -87 -3.425
04:28 1018 30.06 848 25.04 14 57.2 49 3.7 38.6 -87 -3.425
04:29 1018 30.06 848 25.04 14 57.3 49 3.7 38.6 -87 -3.425
04:30 1018 30.06 848 25.04 14 57.2 50 3.8 38.8 -87 -3.425
04:31 1018 30.06 848 25.04 14 57.2 50 3.8 38.8 -87 -3.425
04:32 1019 30.09 848 25.04 13.9 57.1 50 3.8 38.9 -87 -3.425
04:33 1019 30.09 848 25.04 13.9 57 50 3.7 38.7 -87.1 -3.429
04:34 1019 30.09 848 25.04 13.9 57 50 3.8 38.8 -87.1 -3.429
04:35 1019 30.09 848 25.04 13.9 57 51 3.9 39.1 -87.1 -3.429
04:36 1019 30.09 848 25.04 13.9 56.9 51 3.9 39.1 -87.1 -3.429
04:37 1019 30.09 848 25.04 13.9 56.9 51 3.9 39.1 -87.1 -3.429
04:38 1019 30.09 848 25.04 13.8 56.8 51 4 39.2 -87.1 -3.429
04:39 1019 30.09 848 25.04 13.8 56.8 51 3.9 39 -87.2 -3.433
04:40 1019 30.09 848 25.04 13.7 56.7 51 3.8 38.8 -87.2 -3.433
04:41 1019 30.09 848 25.04 13.8 56.9 50 3.7 38.6 -87.2 -3.433
04:42 1019 30.09 848 25.04 13.9 57.1 50 3.7 38.7 -87.2 -3.433
04:43 1019 30.09 848 25.04 14 57.1 49 3.5 38.4 -87.2 -3.433
04:44 1019 30.09 848 25.04 14.1 57.3 49 3.5 38.2 -87.2 -3.433
04:45 1019 30.09 848 25.04 14.2 57.5 49 3.6 38.5 -87.2 -3.433
04:46 1019 30.09 848 25.04 14.2 57.5 49 3.8 38.8 -87.2 -3.433
04:47 1019 30.09 848 25.04 14.2 57.5 49 3.8 38.8 -87.2 -3.433
04:48 1019 30.09 848 25.04 14.1 57.4 49 3.7 38.6 -87.3 -3.437
04:49 1019 30.09 848 25.04 14.2 57.5 49 3.7 38.6 -87.3 -3.437
04:50 1019 30.09 848 25.04 14.1 57.5 49 3.7 38.6 -87.3 -3.437
04:51 1019 30.09 848 25.04 14.2 57.5 49 3.7 38.7 -87.3 -3.437
04:52 1019 30.09 848 25.04 14.2 57.5 50 3.9 38.9 -87.3 -3.437
04:53 1019 30.09 848 25.04 14.1 57.3 50 3.9 39 -87.3 -3.437
04:54 1019 30.09 848 25.04 14 57.3 51 4 39.2 -87.3 -3.437
04:55 1019 30.09 848 25.04 14 57.2 50 3.9 39 -87.3 -3.437
04:56 1019 30.09 848 25.04 13.9 57.1 51 4 39.2 -87.3 -3.437
04:57 1019 30.09 848 25.04 13.9 57.1 51 3.9 39.1 -87.3 -3.437
04:58 1019 30.09 848 25.04 13.9 57 51 4.1 39.3 -87.4 -3.441
04:59 1019 30.09 848 25.04 13.8 56.9 51 4 39.2 -87.4 -3.441
05:00 1019 30.09 849 25.07 13.8 56.9 52 4.1 39.4 -87.4 -3.441
05:01 1019 30.09 849 25.07 13.8 56.8 51 4 39.2 -87.4 -3.441
05:02 1019 30.09 849 25.07 13.7 56.7 52 4 39.2 -87.4 -3.441
05:03 1019 30.09 849 25.07 13.8 56.8 51 3.9 39.1 -87.4 -3.441
05:04 1019 30.09 849 25.07 13.7 56.7 51 4 39.1 -87.4 -3.441
05:05 1019 30.09 849 25.07 13.7 56.7 51 4 39.1 -87.4 -3.441
05:06 1020 30.12 849 25.07 13.7 56.7 52 4.3 39.7 -87.4 -3.441
05:07 1020 30.12 849 25.07 13.7 56.6 53 4.2 39.6 -87.4 -3.441
05:08 1020 30.12 849 25.07 13.6 56.4 53 4.3 39.8 -87.4 -3.441
05:09 1020 30.12 849 25.07 13.5 56.2 53 4.3 39.7 -87.4 -3.441
05:10 1020 30.12 849 25.07 13.4 56.1 54 4.3 39.7 -87.4 -3.441
05:11 1020 30.12 849 25.07 13.3 56 54 4.4 39.9 -87.4 -3.441
05:12 1020 30.12 849 25.07 13.2 55.8 54 4.2 39.6 -87.4 -3.441
05:13 1020 30.12 849 25.07 13.2 55.7 55 4.4 39.8 -87.4 -3.441
05:14 1020 30.12 849 25.07 13.1 55.6 55 4.3 39.7 -87.4 -3.441
05:15 1020 30.12 849 25.07 13 55.4 55 4.2 39.6 -87.4 -3.441
05:16 1020 30.12 849 25.07 13 55.4 55 4.3 39.7 -87.4 -3.441
05:17 1020 30.12 849 25.07 12.9 55.2 56 4.3 39.7 -87.4 -3.441
05:18 1020 30.12 849 25.07 12.8 55 56 4.3 39.8 -87.4 -3.441
05:19 1020 30.12 849 25.07 12.6 54.8 57 4.3 39.8 -87.4 -3.441
05:20 1020 30.12 849 25.07 12.5 54.5 57 4.3 39.7 -87.5 -3.445
05:21 1020 30.12 849 25.07 12.4 54.4 57 4.2 39.6 -87.5 -3.445
05:22 1020 30.12 849 25.07 12.4 54.3 57 4.2 39.5 -87.5 -3.445
05:23 1020 30.12 849 25.07 12.4 54.3 57 4.1 39.4 -87.5 -3.445
05:24 1020 30.12 849 25.07 12.4 54.2 57 4.2 39.5 -87.5 -3.445
05:25 1020 30.12 849 25.07 12.3 54.2 57 4.2 39.5 -87.5 -3.445
05:26 1020 30.12 849 25.07 12.3 54.2 57 4.2 39.5 -87.5 -3.445
05:27 1020 30.12 849 25.07 12.3 54.1 58 4.2 39.6 -87.5 -3.445
05:28 1020 30.12 849 25.07 12.2 54 58 4.2 39.6 -87.5 -3.445
05:29 1020 30.12 849 25.07 12.2 53.9 58 4.2 39.5 -87.5 -3.445
05:30 1020 30.12 849 25.07 12.1 53.8 58 4.2 39.5 -87.6 -3.449
05:31 1020 30.12 849 25.07 12.1 53.9 58 4.2 39.5 -87.6 -3.449
05:32 1020 30.12 849 25.07 12.1 53.9 58 4.2 39.6 -87.6 -3.449
05:33 1020 30.12 849 25.07 12.1 53.8 58 4.3 39.7 -87.6 -3.449
05:34 1020 30.12 849 25.07 12.1 53.7 58 4.1 39.4 -87.6 -3.449
05:35 1020 30.12 849 25.07 12.1 53.9 58 4.2 39.5 -87.6 -3.449
05:36 1020 30.12 849 25.07 12.1 53.9 58 4.2 39.6 -87.6 -3.449
05:37 1020 30.12 850 25.1 12.2 54 58 4.2 39.6 -87.6 -3.449
05:38 1020 30.12 850 25.1 12.2 53.9 58 4.3 39.7 -87.6 -3.449
05:39 1020 30.12 850 25.1 12.2 53.9 58 4.2 39.6 -87.6 -3.449
05:40 1020 30.12 850 25.1 12.2 53.9 58 4.1 39.4 -87.7 -3.453
05:41 1020 30.12 850 25.1 12.3 54.1 58 4.2 39.6 -87.7 -3.453
05:42 1020 30.12 850 25.1 12.4 54.3 58 4.3 39.8 -87.7 -3.453
05:43 1020 30.12 850 25.1 12.5 54.5 57 4.2 39.6 -87.7 -3.453
05:44 1020 30.12 850 25.1 12.6 54.6 57 4.3 39.7 -87.7 -3.453
05:45 1020 30.12 850 25.1 12.7 54.8 56 4.3 39.7 -87.7 -3.453
05:46 1020 30.12 850 25.1 12.7 54.9 57 4.4 39.9 -87.7 -3.453
05:47 1021 30.15 850 25.1 12.7 54.8 56 4.3 39.7 -87.7 -3.453
05:48 1021 30.15 850 25.1 12.8 55 57 4.5 40.1 -87.7 -3.453
05:49 1021 30.15 850 25.1 12.7 54.9 57 4.6 40.2 -87.7 -3.453
05:50 1021 30.15 850 25.1 12.7 54.9 58 4.7 40.5 -87.7 -3.453
05:51 1021 30.15 850 25.1 12.7 54.9 59 4.9 40.8 -87.7 -3.453
05:52 1021 30.15 850 25.1 12.6 54.7 60 5.1 41.1 -87.7 -3.453
05:53 1021 30.15 850 25.1 12.5 54.6 61 5.3 41.6 -87.7 -3.453
05:54 1021 30.15 850 25.1 12.5 54.4 62 5.5 41.9 -87.7 -3.453
05:55 1021 30.15 850 25.1 12.3 54.2 63 5.5 41.8 -87.7 -3.453
05:56 1021 30.15 850 25.1 12.3 54.1 64 5.7 42.3 -87.7 -3.453
05:57 1021 30.15 850 25.1 12.2 53.9 65 5.8 42.4 -87.7 -3.453
05:58 1021 30.15 850 25.1 12.1 53.7 66 5.9 42.6 -87.7 -3.453
05:59 1021 30.15 850 25.1 11.9 53.4 66 5.8 42.4 -87.7 -3.453
06:00 1021 30.15 850 25.1 11.9 53.3 65 5.6 42.1 -87.7 -3.453
06:01 1021 30.15 850 25.1 11.8 53.3 66 5.8 42.4 -87.6 -3.449
06:02 1021 30.15 850 25.1 11.8 53.3 67 6 42.8 -87.6 -3.449
06:03 1021 30.15 850 25.1 11.8 53.2 66 5.7 42.3 -87.7 -3.453
06:04 1021 30.15 850 25.1 11.7 53.1 66 5.7 42.3 -87.7 -3.453
06:05 1021 30.15 850 25.1 11.7 53 66 5.7 42.2 -87.7 -3.453
06:06 1021 30.15 850 25.1 11.7 53 67 5.8 42.5 -87.7 -3.453
06:07 1021 30.15 850 25.1 11.6 52.9 67 5.7 42.2 -87.7 -3.453
06:08 1021 30.15 850 25.1 11.6 52.8 67 5.7 42.2 -87.7 -3.453
06:09 1021 30.15 850 25.1 11.6 52.8 67 5.8 42.4 -87.7 -3.453
06:10 1021 30.15 850 25.1 11.5 52.8 66 5.5 41.8 -87.7 -3.453
06:11 1021 30.15 850 25.1 11.5 52.7 66 5.4 41.6 -87.7 -3.453
06:12 1021 30.15 850 25.1 11.5 52.8 66 5.5 41.9 -87.7 -3.453
06:13 1021 30.15 850 25.1 11.5 52.8 66 5.5 42 -87.7 -3.453
06:14 1021 30.15 850 25.1 11.5 52.6 67 5.6 42 -87.7 -3.453
06:15 1021 30.15 850 25.1 11.4 52.6 66 5.3 41.6 -87.7 -3.453
06:16 1021 30.15 850 25.1 11.5 52.6 66 5.3 41.5 -87.7 -3.453
06:17 1021 30.15 850 25.1 11.5 52.7 66 5.3 41.6 -87.7 -3.453
06:18 1021 30.15 850 25.1 11.5 52.7 65 5.3 41.5 -87.8 -3.457
06:19 1021 30.15 850 25.1 11.5 52.7 65 5.3 41.6 -87.8 -3.457
06:20 1021 30.15 850 25.1 11.5 52.8 66 5.5 41.9 -87.8 -3.457
06:21 1021 30.15 850 25.1 11.5 52.7 66 5.4 41.8 -87.8 -3.457
06:22 1021 30.15 850 25.1 11.5 52.7 66 5.5 41.8 -87.8 -3.457
06:23 1021 30.15 850 25.1 11.5 52.6 66 5.3 41.6 -87.8 -3.457
06:24 1021 30.15 850 25.1 11.5 52.7 66 5.5 41.9 -87.8 -3.457
06:25 1021 30.15 850 25.1 11.5 52.7 65 5.3 41.5 -87.8 -3.457
06:26 1021 30.15 850 25.1 11.5 52.7 65 5.1 41.2 -87.8 -3.457
06:27 1021 30.15 850 25.1 11.6 52.9 65 5.3 41.5 -87.9 -3.461
06:28 1021 30.15 850 25.1 11.7 53.1 65 5.4 41.7 -87.9 -3.461
06:29 1021 30.15 850 25.1 11.7 53.1 65 5.3 41.6 -87.9 -3.461
06:30 1021 30.15 850 25.1 11.7 53.1 65 5.3 41.6 -87.9 -3.461
06:31 1021 30.15 850 25.1 11.7 53.1 63 5 41.1 -87.9 -3.461
06:32 1021 30.15 850 25.1 11.8 53.3 64 5.4 41.6 -87.9 -3.461
06:33 1021 30.15 850 25.1 11.8 53.3 65 5.5 42 -87.9 -3.461
06:34 1021 30.15 850 25.1 11.8 53.2 65 5.4 41.7 -88 -3.465
06:35 1021 30.15 850 25.1 11.7 53.1 66 5.7 42.3 -88 -3.465
06:36 1021 30.15 850 25.1 11.6 52.9 67 5.7 42.3 -88 -3.465
06:37 1021 30.15 850 25.1 11.5 52.7 68 5.9 42.6 -88 -3.465
06:38 1021 30.15 850 25.1 11.4 52.5 69 6 42.8 -88 -3.465
06:39 1021 30.15 850 25.1 11.3 52.3 70 6 42.8 -88 -3.465
06:40 1021 30.15 850 25.1 11.1 52.1 70 6 42.7 -88 -3.465
06:41 1021 30.15 850 25.1 11.1 51.9 68 5.5 41.8 -88 -3.465
06:42 1021 30.15 850 25.1 11.2 52.1 68 5.6 42 -88 -3.465
06:43 1021 30.15 850 25.1 11.2 52.2 68 5.6 42.1 -88 -3.465
06:44 1021 30.15 850 25.1 11.2 52.2 68 5.6 42.1 -88 -3.465
06:45 1021 30.15 850 25.1 11.3 52.3 68 5.6 42.2 -88 -3.465
06:46 1021 30.15 850 25.1 11.3 52.3 67 5.3 41.6 -88 -3.465
06:47 1021 30.15 850 25.1 11.3 52.4 66 5.3 41.5 -88 -3.465
06:48 1021 30.15 850 25.1 11.4 52.5 68 5.7 42.2 -88 -3.465
06:49 1021 30.15 850 25.1 11.4 52.5 67 5.6 42 -88 -3.465
06:50 1021 30.15 850 25.1 11.4 52.5 66 5.4 41.7 -88 -3.465
06:51 1021 30.15 850 25.1 11.5 52.6 68 5.7 42.3 -88.1 -3.469
06:52 1021 30.15 850 25.1 11.4 52.5 68 5.8 42.4 -88.1 -3.469
06:53 1021 30.15 850 25.1 11.4 52.4 68 5.8 42.4 -88.1 -3.469
06:54 1021 30.15 850 25.1 11.3 52.3 69 5.9 42.6 -88.1 -3.469
06:55 1021 30.15 850 25.1 11.2 52.1 71 6.1 43 -88.1 -3.469
06:56 1021 30.15 850 25.1 11.1 51.9 72 6.3 43.4 -88.1 -3.469
06:57 1021 30.15 850 25.1 10.9 51.6 74 6.4 43.5 -88 -3.465
06:58 1021 30.15 850 25.1 10.8 51.4 74 6.2 43.2 -88 -3.465
06:59 1021 30.15 850 25.1 10.7 51.2 73 6.1 42.9 -88 -3.465
07:00 1021 30.15 850 25.1 10.6 51.1 73 6 42.8 -88 -3.465
07:01 1021 30.15 850 25.1 10.6 51.1 74 6.1 43 -88 -3.465
07:02 1021 30.15 850 25.1 10.6 51 73 6.1 42.9 -88 -3.465
07:03 1021 30.15 850 25.1 10.5 50.9 75 6.2 43.2 -88 -3.465
07:04 1021 30.15 850 25.1 10.4 50.7 75 6.1 43 -88 -3.465
07:05 1021 30.15 850 25.1 10.3 50.6 74 5.8 42.5 -88 -3.465
07:06 1021 30.15 850 25.1 10.4 50.8 73 5.8 42.4 -88 -3.465
07:07 1021 30.15 850 25.1 10.5 51 72 5.7 42.2 -88 -3.465
07:08 1021 30.15 850 25.1 10.6 51.1 71 5.5 42 -88 -3.465
07:09 1021 30.15 850 25.1 10.8 51.4 69 5.3 41.5 -88 -3.465
07:10 1021 30.15 850 25.1 10.9 51.7 67 5.1 41.2 -88 -3.465
07:11 1021 30.15 850 25.1 11.2 52.2 66 5 41.1 -88 -3.465
07:12 1021 30.15 850 25.1 11.4 52.5 67 5.6 42 -88 -3.465
07:13 1021 30.15 850 25.1 11.4 52.5 67 5.5 42 -88 -3.465
07:14 1021 30.15 850 25.1 11.3 52.4 67 5.4 41.7 -88.1 -3.469
07:15 1021 30.15 850 25.1 11.2 52.2 67 5.4 41.6 -88.1 -3.469
07:16 1021 30.15 850 25.1 11.2 52.1 68 5.5 41.9 -88.1 -3.469
07:17 1021 30.15 850 25.1 11.1 52 68 5.6 42 -88.1 -3.469
07:18 1021 30.15 850 25.1 11 51.7 69 5.5 41.9 -88.1 -3.469
07:19 1021 30.15 850 25.1 10.9 51.6 69 5.4 41.7 -88.1 -3.469
07:20 1021 30.15 850 25.1 10.9 51.5 68 5.3 41.6 -88.1 -3.469
07:21 1021 30.15 850 25.1 10.9 51.6 68 5.3 41.5 -88.1 -3.469
07:22 1021 30.15 850 25.1 11 51.8 68 5.4 41.7 -88.1 -3.469
07:23 1021 30.15 850 25.1 11 51.8 68 5.4 41.6 -88.1 -3.469
07:24 1021 30.15 850 25.1 11.1 51.9 67 5.1 41.3 -88.1 -3.469
07:25 1021 30.15 850 25.1 11.2 52.1 66 5 41 -88.1 -3.469
07:26 1021 30.15 850 25.1 11.2 52.2 66 5.1 41.1 -88.1 -3.469
07:27 1021 30.15 850 25.1 11.2 52.2 65 5 41 -88.1 -3.469
07:28 1021 30.15 850 25.1 11.3 52.3 65 4.9 40.8 -88.1 -3.469
07:29 1021 30.15 850 25.1 11.3 52.4 65 4.9 40.9 -88.1 -3.469
07:30 1021 30.15 850 25.1 11.4 52.5 64 5 41 -88.1 -3.469
07:31 1021 30.15 850 25.1 11.4 52.6 64 5 40.9 -88.1 -3.469
07:32 1021 30.15 850 25.1 11.5 52.6 64 5 41 -88.2 -3.472
07:33 1021 30.15 850 25.1 11.5 52.6 64 4.9 40.9 -88.2 -3.472
07:34 1021 30.15 850 25.1 11.5 52.7 65 5.1 41.1 -88.2 -3.472
07:35 1021 30.15 851 25.13 11.4 52.4 65 5.2 41.3 -88.2 -3.472
07:36 1021 30.15 851 25.13 11.1 51.9 66 5.1 41.2 -88.2 -3.472
07:37 1021 30.15 851 25.13 10.9 51.7 67 5 41.1 -88.2 -3.472
07:38 1021 30.15 851 25.13 10.7 51.2 68 5 41 -88.2 -3.472
07:39 1021 30.15 851 25.13 10.4 50.8 69 4.9 40.9 -88.2 -3.472
07:40 1021 30.15 851 25.13 10.3 50.5 69 4.9 40.8 -88.2 -3.472
07:41 1021 30.15 851 25.13 10.2 50.4 69 4.9 40.8 -88.2 -3.472
07:42 1021 30.15 851 25.13 10.3 50.5 69 4.8 40.6 -88.2 -3.472
07:43 1021 30.15 851 25.13 10.4 50.7 68 4.8 40.7 -88.2 -3.472
07:44 1021 30.15 851 25.13 10.5 50.8 68 4.9 40.8 -88.2 -3.472
07:45 1021 30.15 851 25.13 10.4 50.7 68 4.8 40.6 -88.2 -3.472
07:46 1021 30.15 851 25.13 10.3 50.5 69 4.8 40.7 -88.2 -3.472
07:47 1021 30.15 851 25.13 10 50 70 4.7 40.5 -88.2 -3.472
07:48 1021 30.15 851 25.13 9.7 49.4 71 4.7 40.5 -88.3 -3.476
07:49 1021 30.15 851 25.13 9.4 48.9 72 4.7 40.4 -88.2 -3.472
07:50 1021 30.15 850 25.1 9.1 48.4 73 4.6 40.2 -88.2 -3.472
07:51 1021 30.15 850 25.1 8.9 47.9 74 4.5 40.1 -88.2 -3.472
07:52 1021 30.15 851 25.13 8.7 47.6 75 4.5 40.1 -88.2 -3.472
07:53 1021 30.15 850 25.1 8.5 47.4 76 4.5 40.2 -88.2 -3.472
07:54 1021 30.15 851 25.13 8.5 47.4 75 4.4 40 -88.2 -3.472
07:55 1021 30.15 851 25.13 8.7 47.6 76 4.7 40.4 -88.2 -3.472
07:56 1021 30.15 851 25.13 9 48.3 74 4.6 40.3 -88.2 -3.472
07:57 1021 30.15 851 25.13 9.6 49.3 71 4.6 40.3 -88.2 -3.472
07:58 1021 30.15 851 25.13 10 49.9 69 4.6 40.3 -88.3 -3.476
07:59 1021 30.15 851 25.13 10.2 50.4 68 4.6 40.2 -88.3 -3.476
08:00 1021 30.15 851 25.13 10.2 50.4 68 4.7 40.4 -88.3 -3.476
08:01 1021 30.15 851 25.13 9.8 49.6 70 4.7 40.4 -88.3 -3.476
08:02 1021 30.15 851 25.13 9.4 48.9 73 4.7 40.5 -88.3 -3.476
08:03 1021 30.15 851 25.13 9.1 48.4 75 4.8 40.7 -88.3 -3.476
08:04 1021 30.15 851 25.13 9 48.3 75 4.8 40.6 -88.3 -3.476
08:05 1021 30.15 851 25.13 8.9 48.1 75 4.8 40.6 -88.4 -3.48
08:06 1021 30.15 851 25.13 9 48.1 76 4.9 40.9 -88.4 -3.48
08:07 1021 30.15 851 25.13 9 48.1 76 5 41.1 -88.4 -3.48
08:08 1021 30.15 851 25.13 8.9 48.1 76 5 41 -88.4 -3.48
08:09 1021 30.15 851 25.13 8.8 47.8 78 5.1 41.1 -88.4 -3.48
08:10 1021 30.15 851 25.13 8.7 47.6 79 5.2 41.3 -88.4 -3.48
08:11 1021 30.15 851 25.13 8.7 47.6 79 5.2 41.3 -88.4 -3.48
08:12 1021 30.15 851 25.13 8.8 47.9 78 5.3 41.6 -88.4 -3.48
08:13 1021 30.15 851 25.13 9.1 48.3 78 5.5 41.8 -88.4 -3.48
08:14 1021 30.15 851 25.13 9.3 48.8 77 5.5 42 -88.4 -3.48
08:15 1021 30.15 851 25.13 9.5 49.1 76 5.6 42.1 -88.4 -3.48
08:16 1021 30.15 851 25.13 9.7 49.5 77 5.8 42.5 -88.4 -3.48
08:17 1021 30.15 851 25.13 9.9 49.8 76 5.8 42.4 -88.4 -3.48
08:18 1022 30.18 851 25.13 10 50.1 75 5.8 42.4 -88.5 -3.484
08:19 1022 30.18 851 25.13 10.2 50.3 74 5.9 42.5 -88.5 -3.484
08:20 1022 30.18 851 25.13 10.3 50.5 74 5.9 42.7 -88.5 -3.484
08:21 1022 30.18 851 25.13 10.5 50.9 74 6 42.9 -88.5 -3.484
08:22 1022 30.18 851 25.13 10.6 51.1 73 6.1 43 -88.5 -3.484
08:23 1022 30.18 851 25.13 10.8 51.5 73 6.3 43.3 -88.5 -3.484
08:24 1022 30.18 851 25.13 11 51.8 73 6.4 43.5 -88.5 -3.484
08:25 1022 30.18 851 25.13 11.2 52.2 72 6.5 43.6 -88.5 -3.484
08:26 1022 30.18 851 25.13 11.4 52.5 73 6.6 44 -88.5 -3.484
08:27 1022 30.18 851 25.13 11.5 52.8 73 6.9 44.5 -88.5 -3.484
08:28 1022 30.18 851 25.13 11.7 53.1 72 6.8 44.3 -88.5 -3.484
08:29 1022 30.18 851 25.13 11.8 53.3 71 6.7 44.1 -88.5 -3.484
08:30 1022 30.18 851 25.13 12 53.6 70 6.8 44.2 -88.5 -3.484
08:31 1022 30.18 851 25.13 12.2 53.9 71 7.2 44.9 -88.5 -3.484
08:32 1022 30.18 851 25.13 12.3 54.1 71 7.3 45.1 -88.5 -3.484
08:33 1022 30.18 851 25.13 12.4 54.3 71 7.3 45.2 -88.5 -3.484
08:34 1022 30.18 851 25.13 12.4 54.3 72 7.5 45.5 -88.5 -3.484
08:35 1022 30.18 851 25.13 12.5 54.5 72 7.6 45.6 -88.5 -3.484
08:36 1022 30.18 851 25.13 12.6 54.6 71 7.5 45.5 -88.5 -3.484
08:37 1022 30.18 851 25.13 12.6 54.7 70 7.3 45.2 -88.5 -3.484
08:38 1022 30.18 851 25.13 12.7 54.8 70 7.5 45.5 -88.5 -3.484
08:39 1022 30.18 851 25.13 12.8 55 71 7.6 45.7 -88.4 -3.48
08:40 1022 30.18 851 25.13 12.9 55.2 69 7.5 45.5 -88.4 -3.48
08:41 1022 30.18 851 25.13 13 55.4 66 6.9 44.4 -88.4 -3.48
08:42 1022 30.18 851 25.13 13.1 55.6 67 7.1 44.8 -88.4 -3.48
08:43 1022 30.18 851 25.13 13.2 55.8 67 7.4 45.3 -88.4 -3.48
08:44 1022 30.18 851 25.13 13.4 56.1 67 7.4 45.4 -88.4 -3.48
08:45 1022 30.18 851 25.13 13.6 56.4 66 7.3 45.1 -88.4 -3.48
08:46 1022 30.18 851 25.13 13.7 56.7 64 7.1 44.8 -88.4 -3.48
08:47 1022 30.18 851 25.13 13.8 56.9 62 6.8 44.2 -88.4 -3.48
08:48 1022 30.18 851 25.13 13.9 57 62 6.8 44.2 -88.4 -3.48
08:49 1022 30.18 851 25.13 13.9 56.9 63 7.1 44.7 -88.4 -3.48
08:50 1022 30.18 851 25.13 13.9 57 64 7.3 45.1 -88.4 -3.48
08:51 1022 30.18 851 25.13 13.9 57 65 7.6 45.6 -88.3 -3.476
08:52 1022 30.18 851 25.13 14 57.2 62 6.8 44.3 -88.3 -3.476
08:53 1022 30.18 851 25.13 14 57.2 63 7 44.7 -88.3 -3.476
08:54 1022 30.18 851 25.13 14.1 57.4 64 7.4 45.3 -88.3 -3.476
08:55 1022 30.18 851 25.13 14.1 57.5 64 7.4 45.4 -88.3 -3.476
08:56 1022 30.18 851 25.13 14.2 57.6 62 7 44.6 -88.3 -3.476
08:57 1022 30.18 851 25.13 14.3 57.7 60 6.7 44.1 -88.3 -3.476
08:58 1022 30.18 851 25.13 14.4 58 60 6.8 44.3 -88.3 -3.476
08:59 1022 30.18 851 25.13 14.5 58.1 60 6.9 44.4 -88.2 -3.472
09:00 1022 30.18 851 25.13 14.7 58.5 60 7.1 44.7 -88.2 -3.472
09:01 1022 30.18 851 25.13 14.8 58.7 59 7 44.5 -88.2 -3.472
09:02 1022 30.18 851 25.13 14.9 58.9 58 6.9 44.4 -88.2 -3.472
09:03 1022 30.18 851 25.13 15 58.9 58 7 44.5 -88.2 -3.472
09:04 1022 30.18 851 25.13 15.1 59.2 59 7.1 44.9 -88.2 -3.472
09:05 1022 30.18 851 25.13 15.2 59.3 57 6.9 44.4 -88.1 -3.469
09:06 1022 30.18 851 25.13 15.3 59.5 57 6.9 44.4 -88.1 -3.469
09:07 1022 30.18 851 25.13 15.4 59.7 56 6.8 44.2 -88.1 -3.469
09:08 1022 30.18 851 25.13 15.5 59.9 58 7.2 45 -88.1 -3.469
09:09 1022 30.18 851 25.13 15.5 60 57 7.1 44.8 -88.1 -3.469
09:10 1022 30.18 851 25.13 15.6 60 56 7 44.6 -88.1 -3.469
09:11 1022 30.18 851 25.13 15.6 60 56 6.9 44.3 -88.1 -3.469
09:12 1022 30.18 851 25.13 15.6 60.1 56 6.9 44.4 -88.1 -3.469
09:13 1022 30.18 852 25.16 15.6 60.1 56 7 44.5 -88 -3.465
09:14 1022 30.18 852 25.16 15.7 60.2 57 7.3 45.1 -88 -3.465
09:15 1022 30.18 852 25.16 15.8 60.4 56 7.2 45 -88 -3.465
09:16 1022 30.18 852 25.16 15.8 60.5 54 6.7 44 -88 -3.465
09:17 1022 30.18 852 25.16 15.8 60.5 54 6.6 43.9 -88 -3.465
09:18 1022 30.18 852 25.16 15.7 60.2 55 6.7 44.1 -88 -3.465
09:19 1022 30.18 852 25.16 15.6 60.1 56 7 44.6 -87.9 -3.461
09:20 1022 30.18 852 25.16 15.6 60 56 6.8 44.3 -87.9 -3.461
09:21 1022 30.18 852 25.16 15.7 60.3 56 7.1 44.8 -87.9 -3.461
09:22 1022 30.18 852 25.16 15.9 60.7 55 6.9 44.5 -87.9 -3.461
09:23 1022 30.18 851 25.13 16.1 61 53 6.6 43.9 -87.9 -3.461
09:24 1022 30.18 851 25.13 16.1 61 52 6.5 43.7 -87.9 -3.461
09:25 1022 30.18 851 25.13 16 60.8 53 6.6 43.8 -87.9 -3.461
09:26 1022 30.18 851 25.13 16.2 61.2 52 6.5 43.7 -87.8 -3.457
09:27 1022 30.18 851 25.13 16.4 61.6 51 6.4 43.6 -87.8 -3.457
09:28 1022 30.18 852 25.16 16.6 61.9 53 7.2 45 -87.8 -3.457
09:29 1022 30.18 852 25.16 16.7 62.1 51 6.7 44.1 -87.7 -3.453
09:30 1022 30.18 852 25.16 16.6 61.8 53 7.1 44.7 -87.7 -3.453
09:31 1022 30.18 852 25.16 16.6 61.8 53 7.1 44.7 -87.7 -3.453
09:32 1022 30.18 852 25.16 16.6 61.9 52 6.8 44.2 -87.7 -3.453
09:33 1022 30.18 852 25.16 16.5 61.6 52 6.8 44.2 -87.7 -3.453
09:34 1022 30.18 852 25.16 16.4 61.6 52 6.5 43.8 -87.7 -3.453
09:35 1022 30.18 852 25.16 16.5 61.7 53 7 44.6 -87.6 -3.449
09:36 1022 30.18 852 25.16 16.6 61.9 53 7.1 44.7 -87.6 -3.449
09:37 1022 30.18 852 25.16 16.6 61.8 52 6.9 44.4 -87.6 -3.449
09:38 1023 30.21 852 25.16 16.5 61.7 54 7.3 45.1 -87.6 -3.449
09:39 1023 30.21 852 25.16 16.4 61.5 51 6.3 43.3 -87.6 -3.449
09:40 1023 30.21 852 25.16 16.4 61.5 53 7 44.5 -87.6 -3.449
09:41 1022 30.18 852 25.16 16.4 61.6 54 7.3 45.1 -87.5 -3.445
09:42 1023 30.21 852 25.16 16.6 61.8 51 6.3 43.4 -87.5 -3.445
09:43 1023 30.21 852 25.16 16.5 61.7 50 6.2 43.2 -87.5 -3.445
09:44 1023 30.21 852 25.16 16.3 61.3 52 6.4 43.5 -87.5 -3.445
09:45 1023 30.21 852 25.16 16.2 61.1 51 6.2 43.1 -87.5 -3.445
09:46 1023 30.21 852 25.16 16 60.8 52 6.2 43.2 -87.4 -3.441
09:47 1023 30.21 852 25.16 16 60.8 52 6.3 43.3 -87.4 -3.441
09:48 1022 30.18 852 25.16 16 60.8 55 7.1 44.8 -87.4 -3.441
09:49 1022 30.18 852 25.16 16.1 61 51 6.1 43 -87.4 -3.441
09:50 1022 30.18 852 25.16 16.1 61 53 6.8 44.2 -87.4 -3.441
09:51 1022 30.18 852 25.16 16.2 61.1 53 6.7 44 -87.4 -3.441
09:52 1023 30.21 852 25.16 16.2 61.2 54 7.1 44.7 -87.3 -3.437
09:53 1023 30.21 852 25.16 16.3 61.4 53 6.7 44.1 -87.3 -3.437
09:54 1023 30.21 852 25.16 16.3 61.4 49 5.8 42.4 -87.3 -3.437
09:55 1023 30.21 852 25.16 16.2 61.1 52 6.4 43.5 -87.3 -3.437
09:56 1023 30.21 852 25.16 16.2 61.1 52 6.4 43.5 -87.3 -3.437
09:57 1023 30.21 852 25.16 16.3 61.3 50 5.9 42.6 -87.3 -3.437
09:58 1023 30.21 852 25.16 16.3 61.3 50 6 42.8 -87.2 -3.433
09:59 1023 30.21 852 25.16 16.2 61.2 53 6.8 44.3 -87.2 -3.433
10:00 1023 30.21 852 25.16 16.2 61.1 52 6.4 43.5 -87.2 -3.433
10:01 1023 30.21 852 25.16 16.2 61.1 52 6.3 43.3 -87.2 -3.433
10:02 1023 30.21 852 25.16 16.2 61.1 53 6.6 43.9 -87.2 -3.433
10:03 1023 30.21 852 25.16 16.2 61.2 51 6.1 43.1 -87.2 -3.433
10:04 1023 30.21 852 25.16 16.2 61.2 52 6.5 43.7 -87.1 -3.429
10:05 1023 30.21 852 25.16 16.3 61.3 50 6 42.8 -87.1 -3.429
10:06 1023 30.21 852 25.16 16.3 61.3 51 6.3 43.3 -87.1 -3.429
10:07 1023 30.21 852 25.16 16.2 61.2 49 5.5 41.9 -87.1 -3.429
10:08 1023 30.21 852 25.16 16.2 61.1 48 5.2 41.4 -87 -3.425
10:09 1023 30.21 852 25.16 16.1 61 49 5.4 41.7 -87 -3.425
10:10 1023 30.21 852 25.16 16.1 60.9 50 5.8 42.4 -87 -3.425
10:11 1023 30.21 852 25.16 16.1 61.1 52 6.3 43.3 -87 -3.425
10:12 1023 30.21 852 25.16 16.3 61.3 52 6.4 43.6 -87 -3.425
10:13 1023 30.21 852 25.16 16.4 61.4 50 6 42.8 -86.9 -3.421
10:14 1023 30.21 852 25.16 16.5 61.6 49 5.7 42.3 -87 -3.425
10:15 1023 30.21 852 25.16 16.4 61.4 50 5.9 42.6 -87 -3.425
10:16 1023 30.21 852 25.16 16.3 61.3 49 5.8 42.4 -86.9 -3.421
10:17 1023 30.21 852 25.16 16.4 61.5 49 5.9 42.6 -86.9 -3.421
10:18 1023 30.21 852 25.16 16.5 61.7 49 5.8 42.5 -86.9 -3.421
10:19 1023 30.21 852 25.16 16.6 61.9 47 5.3 41.6 -86.8 -3.417
10:20 1023 30.21 852 25.16 16.7 62 48 5.7 42.2 -86.8 -3.417
10:21 1023 30.21 852 25.16 16.6 61.9 48 5.5 41.9 -86.8 -3.417
10:22 1023 30.21 852 25.16 16.5 61.6 49 5.9 42.7 -86.8 -3.417
10:23 1023 30.21 852 25.16 16.5 61.7 46 4.9 40.8 -86.7 -3.413
10:24 1023 30.21 852 25.16 16.5 61.7 47 5.4 41.7 -86.7 -3.413
10:25 1023 30.21 852 25.16 16.6 61.8 47 5.3 41.5 -86.7 -3.413
10:26 1023 30.21 852 25.16 16.5 61.8 46 5.1 41.2 -86.7 -3.413
10:27 1022 30.18 852 25.16 16.5 61.6 48 5.5 41.9 -86.7 -3.413
10:28 1022 30.18 852 25.16 16.4 61.4 45 4.5 40.1 -86.7 -3.413
10:29 1022 30.18 852 25.16 16.4 61.4 45 4.4 40 -86.7 -3.413
10:30 1022 30.18 852 25.16 16.4 61.5 44 4.2 39.5 -86.6 -3.409
10:31 1022 30.18 852 25.16 16.4 61.6 40 2.8 37.1 -86.6 -3.409
10:32 1022 30.18 852 25.16 16.4 61.5 42 3.5 38.4 -86.6 -3.409
10:33 1022 30.18 852 25.16 16.5 61.7 43 4.1 39.3 -86.6 -3.409
10:34 1022 30.18 852 25.16 16.5 61.8 44 4.3 39.8 -86.5 -3.406
10:35 1022 30.18 852 25.16 16.7 62 45 4.7 40.4 -86.5 -3.406
10:36 1022 30.18 852 25.16 16.8 62.2 40 3.3 37.9 -86.5 -3.406
10:37 1022 30.18 852 25.16 16.7 62 45 4.7 40.4 -86.5 -3.406
10:38 1022 30.18 852 25.16 16.6 61.9 42 3.8 38.8 -86.5 -3.406
10:39 1022 30.18 852 25.16 16.5 61.7 44 4.3 39.7 -86.5 -3.406
10:40 1022 30.18 852 25.16 16.5 61.8 46 4.9 40.8 -86.5 -3.406
10:41 1022 30.18 852 25.16 16.6 61.9 44 4.5 40.2 -86.5 -3.406
10:42 1022 30.18 852 25.16 16.7 62 43 4.2 39.6 -86.5 -3.406
10:43 1022 30.18 852 25.16 16.7 62.1 47 5.5 41.8 -86.4 -3.402
10:44 1022 30.18 852 25.16 16.7 62.1 46 5.2 41.4 -86.4 -3.402
10:45 1022 30.18 852 25.16 16.7 62.1 48 5.6 42.2 -86.4 -3.402
10:46 1022 30.18 852 25.16 16.9 62.4 45 5.1 41.2 -86.4 -3.402
10:47 1022 30.18 852 25.16 17 62.6 42 4.1 39.4 -86.3 -3.398
10:48 1022 30.18 852 25.16 17 62.6 43 4.5 40.1 -86.3 -3.398
10:49 1022 30.18 852 25.16 17.1 62.7 38 2.9 37.2 -86.3 -3.398
10:50 1022 30.18 852 25.16 17.1 62.7 41 3.7 38.7 -86.3 -3.398
10:51 1022 30.18 852 25.16 17 62.6 42 4.2 39.6 -86.3 -3.398
10:52 1022 30.18 852 25.16 17 62.7 42 4.1 39.3 -86.3 -3.398
10:53 1022 30.18 852 25.16 17.1 62.8 41 3.8 38.9 -86.3 -3.398
10:54 1022 30.18 852 25.16 17.2 62.9 40 3.7 38.6 -86.2 -3.394
10:55 1022 30.18 852 25.16 17 62.7 40 3.5 38.2 -86.2 -3.394
10:56 1022 30.18 852 25.16 17 62.6 40 3.2 37.8 -86.2 -3.394
10:57 1022 30.18 852 25.16 16.9 62.5 45 4.9 40.9 -86.2 -3.394
10:58 1023 30.21 852 25.16 17 62.6 43 4.4 39.9 -86.1 -3.39
10:59 1023 30.21 852 25.16 17.1 62.8 43 4.5 40 -86.1 -3.39
11:00 1023 30.21 852 25.16 17.1 62.8 42 4.1 39.3 -86.1 -3.39
11:01 1023 30.21 852 25.16 17.2 62.9 40 3.5 38.2 -86.1 -3.39
11:02 1023 30.21 852 25.16 17.2 62.9 40 3.5 38.4 -86.1 -3.39
11:03 1023 30.21 852 25.16 17 62.6 42 4 39.2 -86.1 -3.39
11:04 1023 30.21 852 25.16 17 62.6 42 4.3 39.7 -86.1 -3.39
11:05 1023 30.21 852 25.16 17.1 62.7 45 5 41 -86 -3.386
11:06 1023 30.21 852 25.16 17.1 62.8 42 4.3 39.7 -86 -3.386
11:07 1023 30.21 852 25.16 17.1 62.8 43 4.7 40.4 -86.1 -3.39
11:08 1023 30.21 852 25.16 17.1 62.8 43 4.7 40.5 -86 -3.386
11:09 1023 30.21 852 25.16 17.3 63.1 44 5 41.1 -86 -3.386
11:10 1023 30.21 852 25.16 17.5 63.4 40 3.9 38.9 -86 -3.386
11:11 1023 30.21 852 25.16 17.5 63.4 42 4.4 40 -86 -3.386
11:12 1023 30.21 852 25.16 17.5 63.5 41 4.3 39.7 -85.9 -3.382
11:13 1023 30.21 852 25.16 17.6 63.8 41 4.4 40 -85.9 -3.382
11:14 1023 30.21 852 25.16 17.6 63.7 43 5 41 -85.9 -3.382
11:15 1023 30.21 852 25.16 17.6 63.6 40 3.8 38.9 -85.9 -3.382
11:16 1023 30.21 852 25.16 17.5 63.4 44 5.3 41.5 -85.8 -3.378
11:17 1023 30.21 852 25.16 17.4 63.4 41 4 39.2 -85.8 -3.378
11:18 1023 30.21 852 25.16 17.3 63.2 40 3.8 38.9 -85.8 -3.378
11:19 1023 30.21 852 25.16 17.4 63.3 40 3.9 39 -85.8 -3.378
11:20 1023 30.21 852 25.16 17.4 63.3 41 4.2 39.5 -85.8 -3.378
11:21 1023 30.21 852 25.16 17.4 63.2 42 4.4 40 -85.8 -3.378
11:22 1023 30.21 852 25.16 17.4 63.2 42 4.4 39.9 -85.9 -3.382
11:23 1023 30.21 852 25.16 17.4 63.3 39 3.5 38.3 -85.9 -3.382
11:24 1023 30.21 852 25.16 17.4 63.4 40 4 39.1 -85.7 -3.374
11:25 1023 30.21 852 25.16 17.5 63.5 38 3.3 38 -85.7 -3.374
11:26 1023 30.21 852 25.16 17.5 63.5 41 4.1 39.4 -85.7 -3.374
11:27 1023 30.21 852 25.16 17.6 63.8 43 5 40.9 -85.7 -3.374
11:28 1023 30.21 852 25.16 17.8 64 39 3.6 38.5 -85.6 -3.37
11:29 1023 30.21 852 25.16 17.9 64.2 39 4 39.2 -85.6 -3.37
11:30 1023 30.21 852 25.16 17.9 64.1 38 3.5 38.3 -85.6 -3.37
11:31 1023 30.21 852 25.16 17.9 64.2 39 4 39.2 -85.6 -3.37
11:32 1023 30.21 852 25.16 17.9 64.3 38 3.7 38.6 -85.6 -3.37
11:33 1023 30.21 852 25.16 17.8 64.1 41 4.6 40.3 -85.6 -3.37
11:34 1023 30.21 852 25.16 17.7 63.9 39 3.8 38.8 -85.6 -3.37
11:35 1023 30.21 852 25.16 17.7 63.8 41 4.3 39.8 -85.6 -3.37
11:36 1023 30.21 852 25.16 17.7 63.9 41 4.6 40.3 -85.5 -3.366
11:37 1023 30.21 852 25.16 17.9 64.1 39 3.8 38.9 -85.5 -3.366
11:38 1023 30.21 852 25.16 18 64.4 38 3.7 38.6 -85.5 -3.366
11:39 1023 30.21 852 25.16 18.1 64.6 37 3.5 38.3 -85.4 -3.362
11:40 1023 30.21 852 25.16 18.2 64.8 39 4 39.2 -85.4 -3.362
11:41 1023 30.21 852 25.16 18.3 64.9 39 4.1 39.3 -85.4 -3.362
11:42 1023 30.21 852 25.16 18.3 64.9 41 4.8 40.7 -85.4 -3.362
11:43 1023 30.21 852 25.16 18.3 65 39 4.4 39.8 -85.4 -3.362
11:44 1023 30.21 852 25.16 18.3 65 39 4.4 39.9 -85.4 -3.362
11:45 1023 30.21 852 25.16 18.3 65 37 3.4 38.2 -85.3 -3.358
11:46 1023 30.21 852 25.16 18.3 64.9 39 4.2 39.6 -85.3 -3.358
11:47 1023 30.21 852 25.16 18.1 64.6 38 3.7 38.6 -85.3 -3.358
11:48 1023 30.21 852 25.16 18.1 64.5 37 3.2 37.8 -85.3 -3.358
11:49 1023 30.21 852 25.16 18 64.4 37 3.3 37.9 -85.2 -3.354
11:50 1023 30.21 852 25.16 18 64.4 39 4.1 39.5 -85.2 -3.354
11:51 1023 30.21 852 25.16 18.1 64.5 37 3.2 37.7 -85.2 -3.354
11:52 1023 30.21 852 25.16 18.2 64.7 37 3.4 38.1 -85.2 -3.354
11:53 1023 30.21 852 25.16 18.2 64.8 37 3.4 38.1 -85.2 -3.354
11:54 1023 30.21 852 25.16 18.3 65 38 4.1 39.3 -85.1 -3.35
11:55 1023 30.21 852 25.16 18.5 65.4 37 3.8 38.8 -85.1 -3.35
11:56 1023 30.21 852 25.16 18.8 65.8 35 3.1 37.6 -85 -3.346
11:57 1023 30.21 852 25.16 18.8 65.8 35 3.2 37.7 -85 -3.346
11:58 1023 30.21 852 25.16 18.7 65.7 39 4.7 40.4 -85 -3.346
11:59 1023 30.21 852 25.16 18.8 65.8 38 4.3 39.7 -85 -3.346
12:00 1023 30.21 852 25.16 18.9 66 37 4 39.2 -85 -3.346
12:01 1023 30.21 852 25.16 18.8 65.9 34 2.9 37.3 -85 -3.346
12:02 1023 30.21 852 25.16 18.7 65.7 35 3.2 37.7 -85 -3.346
12:03 1023 30.21 852 25.16 18.6 65.4 37 3.7 38.7 -85 -3.346
12:04 1023 30.21 852 25.16 18.5 65.2 37 3.8 38.9 -85 -3.346
12:05 1022 30.18 852 25.16 18.4 65.1 37 3.7 38.7 -84.9 -3.343
12:06 1022 30.18 852 25.16 18.4 65.1 41 5.2 41.4 -84.9 -3.343
12:07 1023 30.21 852 25.16 18.5 65.4 37 3.7 38.6 -84.9 -3.343
12:08 1023 30.21 852 25.16 18.6 65.4 38 4 39.2 -84.9 -3.343
12:09 1022 30.18 852 25.16 18.7 65.6 39 4.4 40 -84.9 -3.343
12:10 1022 30.18 852 25.16 18.8 65.8 42 5.6 42.1 -84.8 -3.339
12:11 1022 30.18 852 25.16 19 66.2 35 3.2 37.8 -84.8 -3.339
12:12 1022 30.18 852 25.16 19 66.2 36 3.8 38.9 -84.8 -3.339
12:13 1022 30.18 852 25.16 18.9 66 36 3.7 38.6 -84.8 -3.339
12:14 1022 30.18 852 25.16 18.9 66 38 4.2 39.6 -84.8 -3.339
12:15 1022 30.18 852 25.16 18.9 66.1 37 4.2 39.6 -84.7 -3.335
12:16 1022 30.18 852 25.16 19 66.1 36 3.7 38.7 -84.7 -3.335
12:17 1022 30.18 852 25.16 18.9 66 37 3.9 39 -84.7 -3.335
12:18 1022 30.18 852 25.16 18.8 65.9 38 4.2 39.6 -84.7 -3.335
12:19 1022 30.18 852 25.16 18.8 65.8 38 4.4 39.9 -84.7 -3.335
12:20 1022 30.18 852 25.16 18.7 65.7 36 3.5 38.2 -84.7 -3.335
12:21 1022 30.18 852 25.16 18.7 65.6 36 3.3 38 -84.7 -3.335
12:22 1022 30.18 852 25.16 18.7 65.7 40 4.8 40.7 -84.7 -3.335
12:23 1022 30.18 852 25.16 18.7 65.7 36 3.3 38 -84.7 -3.335
12:24 1022 30.18 851 25.13 18.8 65.8 35 3.3 37.9 -84.6 -3.331
12:25 1022 30.18 852 25.16 18.9 66 34 3 37.4 -84.6 -3.331
12:26 1022 30.18 852 25.16 18.9 66 35 3.1 37.5 -84.6 -3.331
12:27 1022 30.18 852 25.16 18.8 65.9 33 2.5 36.5 -84.6 -3.331
12:28 1022 30.18 852 25.16 18.9 66.1 34 2.8 37.1 -84.6 -3.331
12:29 1022 30.18 851 25.13 19.1 66.4 35 3.6 38.5 -84.6 -3.331
12:30 1022 30.18 851 25.13 19.4 67 37 4.5 40 -84.5 -3.327
12:31 1022 30.18 851 25.13 19.5 67 34 3.4 38.1 -84.5 -3.327
12:32 1022 30.18 851 25.13 19.4 67 34 3.5 38.3 -84.5 -3.327
12:33 1022 30.18 851 25.13 19.4 66.9 35 3.9 39 -84.5 -3.327
12:34 1022 30.18 851 25.13 19.4 66.9 36 4.1 39.3 -84.5 -3.327
12:35 1022 30.18 851 25.13 19.5 67 35 3.7 38.7 -84.5 -3.327
12:36 1022 30.18 851 25.13 19.4 67 35 3.8 38.8 -84.4 -3.323
12:37 1022 30.18 851 25.13 19.4 67 34 3.4 38.1 -84.4 -3.323
12:38 1022 30.18 851 25.13 19.4 67 36 4.3 39.8 -84.4 -3.323
12:39 1022 30.18 851 25.13 19.6 67.2 35 3.8 38.8 -84.4 -3.323
12:40 1022 30.18 851 25.13 19.6 67.2 37 4.8 40.6 -84.4 -3.323
12:41 1022 30.18 851 25.13 19.5 67.1 32 2.7 36.8 -84.4 -3.323
12:42 1022 30.18 851 25.13 19.5 67.2 33 2.9 37.3 -84.4 -3.323
12:43 1022 30.18 851 25.13 19.6 67.2 35 3.9 38.9 -84.3 -3.319
12:44 1022 30.18 851 25.13 19.5 67.1 34 3.3 37.9 -84.3 -3.319
12:45 1022 30.18 851 25.13 19.4 67 33 2.8 37.1 -84.3 -3.319
12:46 1022 30.18 851 25.13 19.4 66.9 34 3.1 37.6 -84.3 -3.319
12:47 1022 30.18 851 25.13 19.5 67.1 35 3.8 38.8 -84.3 -3.319
12:48 1022 30.18 851 25.13 19.7 67.5 33 3.2 37.7 -84.2 -3.315
12:49 1022 30.18 851 25.13 19.9 67.8 32 3 37.5 -84.2 -3.315
12:50 1022 30.18 851 25.13 20 67.9 35 4.1 39.4 -84.2 -3.315
12:51 1022 30.18 851 25.13 19.8 67.6 33 3.1 37.6 -84.2 -3.315
12:52 1022 30.18 851 25.13 19.7 67.5 35 3.8 38.9 -84.2 -3.315
12:53 1022 30.18 851 25.13 19.6 67.3 34 3.6 38.5 -84.2 -3.315
12:54 1022 30.18 851 25.13 19.6 67.2 37 4.8 40.6 -84.2 -3.315
12:55 1022 30.18 851 25.13 19.8 67.6 37 4.8 40.7 -84.2 -3.315
12:56 1022 30.18 851 25.13 20.1 68.1 36 4.6 40.2 -84.2 -3.315
12:57 1022 30.18 851 25.13 20.3 68.5 35 4.3 39.7 -84.1 -3.311
12:58 1022 30.18 851 25.13 20.3 68.5 32 3.4 38 -84.1 -3.311
12:59 1022 30.18 851 25.13 20.2 68.4 32 3 37.3 -84.1 -3.311
13:00 1022 30.18 851 25.13 20.2 68.3 31 2.9 37.2 -84.1 -3.311
13:01 1022 30.18 851 25.13 20 67.9 32 2.9 37.3 -84.1 -3.311
13:02 1022 30.18 851 25.13 19.8 67.6 32 2.9 37.2 -84.1 -3.311
13:03 1022 30.18 851 25.13 19.7 67.5 34 3.7 38.7 -84.1 -3.311
13:04 1022 30.18 851 25.13 19.8 67.7 35 4.1 39.3 -84 -3.307
13:05 1022 30.18 851 25.13 20.1 68.2 36 4.9 40.8 -84 -3.307
13:06 1022 30.18 851 25.13 20.3 68.6 31 2.9 37.2 -84 -3.307
13:07 1022 30.18 851 25.13 20.2 68.4 32 3 37.3 -84 -3.307
13:08 1022 30.18 851 25.13 20.1 68.2 32 3 37.4 -84 -3.307
13:09 1022 30.18 851 25.13 20.1 68.2 33 3.5 38.3 -84 -3.307
13:10 1022 30.18 851 25.13 20.1 68.1 33 3.3 37.9 -84 -3.307
13:11 1022 30.18 851 25.13 20.1 68.1 32 3.1 37.7 -84 -3.307
13:12 1022 30.18 851 25.13 20.1 68.1 36 4.7 40.5 -84 -3.307
13:13 1022 30.18 851 25.13 20.3 68.5 34 3.9 39 -84 -3.307
13:14 1022 30.18 851 25.13 20.4 68.6 36 4.8 40.6 -84 -3.307
13:15 1022 30.18 851 25.13 20.3 68.6 32 3.1 37.6 -84 -3.307
13:16 1022 30.18 851 25.13 20.2 68.3 33 3.5 38.2 -84 -3.307
13:17 1022 30.18 851 25.13 20 68 36 4.5 40 -83.9 -3.303
13:18 1022 30.18 851 25.13 20 68 33 3.6 38.5 -83.9 -3.303
13:19 1022 30.18 851 25.13 20.1 68.1 36 4.8 40.6 -83.9 -3.303
13:20 1022 30.18 851 25.13 20.1 68.3 33 3.7 38.7 -83.9 -3.303
13:21 1022 30.18 851 25.13 20.2 68.3 32 3.3 37.9 -83.9 -3.303
13:22 1022 30.18 851 25.13 20.2 68.3 35 4.4 40 -83.9 -3.303
13:23 1022 30.18 851 25.13 20.3 68.5 32 3.3 38 -83.9 -3.303
13:24 1022 30.18 851 25.13 20.4 68.8 32 3.3 38 -83.8 -3.299
13:25 1022 30.18 851 25.13 20.4 68.8 32 3.3 38 -83.8 -3.299
13:26 1022 30.18 851 25.13 20.5 68.9 33 3.7 38.6 -83.8 -3.299
13:27 1022 30.18 851 25.13 20.7 69.3 35 4.9 40.8 -83.8 -3.299
13:28 1022 30.18 851 25.13 20.8 69.5 31 3.4 38.1 -83.8 -3.299
13:29 1022 30.18 851 25.13 20.8 69.4 33 4 39.1 -83.8 -3.299
13:30 1022 30.18 851 25.13 20.6 69.1 33 4.1 39.3 -83.8 -3.299
13:31 1022 30.18 851 25.13 20.5 69 33 4 39.1 -83.8 -3.299
13:32 1022 30.18 851 25.13 20.5 68.9 33 3.8 38.9 -83.8 -3.299
13:33 1022 30.18 851 25.13 20.5 68.8 34 4.1 39.3 -83.8 -3.299
13:34 1022 30.18 851 25.13 20.4 68.7 34 4 39.2 -83.8 -3.299
13:35 1022 30.18 851 25.13 20.3 68.5 33 3.8 38.8 -83.8 -3.299
13:36 1022 30.18 851 25.13 20.3 68.5 32 3.2 37.8 -83.8 -3.299
13:37 1022 30.18 851 25.13 20.3 68.6 32 3.3 37.9 -83.8 -3.299
13:38 1022 30.18 851 25.13 20.4 68.8 35 4.5 40.1 -83.8 -3.299
13:39 1022 30.18 851 25.13 20.5 68.9 32 3.5 38.3 -83.8 -3.299
13:40 1022 30.18 851 25.13 20.6 69.1 32 3.3 37.9 -83.8 -3.299
13:41 1022 30.18 851 25.13 20.6 69.1 32 3.4 38 -83.8 -3.299
13:42 1022 30.18 851 25.13 20.6 69.1 35 4.9 40.9 -83.8 -3.299
13:43 1022 30.18 851 25.13 20.7 69.2 33 4 39.2 -83.8 -3.299
13:44 1022 30.18 851 25.13 20.6 69.1 33 3.8 38.8 -83.8 -3.299
13:45 1022 30.18 851 25.13 20.5 69 31 3.1 37.6 -83.8 -3.299
13:46 1022 30.18 851 25.13 20.6 69.1 32 3.6 38.5 -83.7 -3.295
13:47 1022 30.18 851 25.13 20.8 69.5 32 3.6 38.5 -83.7 -3.295
13:48 1022 30.18 851 25.13 20.9 69.6 34 4.6 40.3 -83.7 -3.295
13:49 1021 30.15 851 25.13 21.1 69.9 32 3.8 38.8 -83.7 -3.295
13:50 1021 30.15 851 25.13 21 69.8 33 4.2 39.6 -83.7 -3.295
13:51 1021 30.15 851 25.13 21 69.7 32 4 39.2 -83.7 -3.295
13:52 1021 30.15 851 25.13 20.9 69.7 30 3 37.4 -83.7 -3.295
13:53 1021 30.15 851 25.13 20.9 69.7 32 4 39.1 -83.7 -3.295
13:54 1021 30.15 851 25.13 21.1 69.9 31 3.6 38.5 -83.6 -3.291
13:55 1021 30.15 851 25.13 21.2 70.1 33 4.6 40.2 -83.6 -3.291
13:56 1021 30.15 851 25.13 21.2 70.1 32 4.2 39.6 -83.6 -3.291
13:57 1021 30.15 851 25.13 21.3 70.3 34 5.1 41.2 -83.6 -3.291
13:58 1021 30.15 851 25.13 21.4 70.5 29 2.8 37.1 -83.6 -3.291
13:59 1021 30.15 851 25.13 21.4 70.5 29 3 37.4 -83.6 -3.291
14:00 1021 30.15 850 25.1 21.3 70.3 31 3.5 38.3 -83.6 -3.291
14:01 1021 30.15 851 25.13 21.3 70.3 31 3.6 38.5 -83.6 -3.291
14:02 1021 30.15 851 25.13 21.2 70.2 30 3 37.4 -83.6 -3.291
14:03 1021 30.15 850 25.1 21.1 70 30 3.2 37.8 -83.6 -3.291
14:04 1021 30.15 850 25.1 21.1 70 31 3.4 38.2 -83.6 -3.291
14:05 1021 30.15 850 25.1 21.1 69.9 33 4.3 39.8 -83.6 -3.291
14:06 1021 30.15 850 25.1 21.2 70.1 30 3.2 37.7 -83.5 -3.287
14:07 1021 30.15 850 25.1 21.1 70.1 30 2.9 37.1 -83.5 -3.287
14:08 1021 30.15 850 25.1 21.1 69.9 29 2.6 36.6 -83.5 -3.287
14:09 1021 30.15 850 25.1 21.1 70.1 29 2.8 37.1 -83.5 -3.287
14:10 1021 30.15 850 25.1 21.3 70.3 31 3.7 38.6 -83.4 -3.283
14:11 1021 30.15 850 25.1 21.4 70.6 33 4.8 40.7 -83.4 -3.283
14:12 1021 30.15 850 25.1 21.7 71 32 4.4 39.9 -83.4 -3.283
14:13 1021 30.15 850 25.1 21.7 71.1 29 3.2 37.7 -83.4 -3.283
14:14 1021 30.15 850 25.1 21.6 70.9 28 2.6 36.7 -83.4 -3.283
14:15 1021 30.15 850 25.1 21.6 70.8 30 3.6 38.5 -83.4 -3.283
14:16 1021 30.15 850 25.1 21.6 70.9 30 3.4 38.2 -83.4 -3.283
14:17 1021 30.15 850 25.1 21.6 70.9 31 3.9 39.1 -83.4 -3.283
14:18 1021 30.15 850 25.1 21.6 70.9 30 3.6 38.4 -83.4 -3.283
14:19 1021 30.15 850 25.1 21.7 71.1 29 3.3 38 -83.4 -3.283
14:20 1021 30.15 850 25.1 21.8 71.2 29 3.2 37.7 -83.3 -3.28
14:21 1021 30.15 850 25.1 21.7 71.1 30 3.8 38.8 -83.3 -3.28
14:22 1021 30.15 850 25.1 21.7 71.1 29 3 37.3 -83.3 -3.28
14:23 1021 30.15 850 25.1 21.7 71 34 5.1 41.3 -83.3 -3.28
14:24 1021 30.15 850 25.1 21.8 71.2 28 2.9 37.1 -83.3 -3.28
14:25 1021 30.15 850 25.1 21.8 71.2 27 2.2 35.9 -83.2 -3.276
14:26 1021 30.15 850 25.1 21.7 71.1 28 2.4 36.2 -83.2 -3.276
14:27 1021 30.15 850 25.1 21.8 71.2 28 2.6 36.7 -83.2 -3.276
14:28 1021 30.15 850 25.1 22 71.6 28 2.7 36.9 -83.1 -3.272
14:29 1021 30.15 850 25.1 22.3 72.1 26 2 35.6 -83 -3.268
14:30 1021 30.15 850 25.1 22.4 72.4 26 2.2 36 -83 -3.268
14:31 1021 30.15 850 25.1 22.5 72.6 26 2.1 35.8 -83 -3.268
14:32 1021 30.15 850 25.1 22.5 72.5 25 1.8 35.2 -83 -3.268
14:33 1021 30.15 850 25.1 22.6 72.6 29 3.7 38.6 -83 -3.268
14:34 1021 30.15 850 25.1 22.7 72.8 25 1.9 35.4 -82.9 -3.264
14:35 1021 30.15 850 25.1 22.6 72.7 26 2.1 35.7 -82.9 -3.264
14:36 1021 30.15 850 25.1 22.5 72.6 26 2.1 35.8 -82.9 -3.264
14:37 1021 30.15 850 25.1 22.4 72.4 25 1.6 34.9 -82.9 -3.264
14:38 1021 30.15 850 25.1 22.4 72.3 25 1.8 35.3 -82.9 -3.264
14:39 1021 30.15 850 25.1 22.5 72.4 24 1.3 34.3 -82.9 -3.264
14:40 1021 30.15 850 25.1 22.5 72.5 25 1.5 34.8 -82.9 -3.264
14:41 1021 30.15 850 25.1 22.5 72.6 26 2.1 35.8 -82.8 -3.26
14:42 1021 30.15 850 25.1 22.7 72.9 24 1.3 34.3 -82.8 -3.26
14:43 1021 30.15 850 25.1 22.9 73.2 24 1.6 34.8 -82.8 -3.26
14:44 1021 30.15 850 25.1 23.1 73.5 26 2.5 36.6 -82.8 -3.26
14:45 1021 30.15 850 25.1 23 73.4 24 1.6 34.8 -82.7 -3.256
14:46 1021 30.15 850 25.1 22.8 73.1 25 2.1 35.7 -82.7 -3.256
14:47 1021 30.15 850 25.1 22.7 72.8 24 1.5 34.7 -82.7 -3.256
14:48 1021 30.15 850 25.1 22.6 72.7 27 2.7 36.8 -82.7 -3.256
14:49 1021 30.15 850 25.1 22.7 72.8 26 2.2 36 -82.6 -3.252
14:50 1021 30.15 850 25.1 22.7 72.9 24 1.3 34.3 -82.6 -3.252
14:51 1021 30.15 850 25.1 22.7 72.8 25 1.9 35.4 -82.6 -3.252
14:52 1021 30.15 850 25.1 22.6 72.7 25 1.6 34.9 -82.6 -3.252
14:53 1021 30.15 850 25.1 22.6 72.7 24 1.4 34.5 -82.6 -3.252
14:54 1021 30.15 850 25.1 22.5 72.5 24 1.4 34.5 -82.5 -3.248
14:55 1021 30.15 850 25.1 22.4 72.3 24 1.3 34.4 -82.5 -3.248
14:56 1021 30.15 850 25.1 22.5 72.5 28 3.3 38 -82.5 -3.248
14:57 1021 30.15 850 25.1 22.7 72.8 26 2.4 36.3 -82.4 -3.244
14:58 1021 30.15 850 25.1 22.8 73 24 1.2 34.1 -82.4 -3.244
14:59 1021 30.15 850 25.1 22.8 73 25 1.8 35.3 -82.4 -3.244
15:00 1021 30.15 850 25.1 22.9 73.1 23 0.7 33.3 -82.4 -3.244
15:01 1021 30.15 850 25.1 22.8 73.1 25 1.8 35.2 -82.3 -3.24
15:02 1021 30.15 850 25.1 22.8 73 23 1 33.9 -82.3 -3.24
15:03 1021 30.15 850 25.1 22.9 73.2 24 1.7 35 -82.3 -3.24
15:04 1021 30.15 850 25.1 22.9 73.3 23 1.1 34 -82.2 -3.236
15:05 1021 30.15 850 25.1 23.1 73.6 23 1.2 34.2 -82.2 -3.236
15:06 1021 30.15 850 25.1 23.3 73.9 24 1.6 34.8 -82.2 -3.236
15:07 1021 30.15 850 25.1 23.4 74.2 24 2.1 35.8 -82.1 -3.232
15:08 1021 30.15 850 25.1 23.6 74.4 24 1.9 35.5 -82.1 -3.232
15:09 1021 30.15 850 25.1 23.7 74.7 22 1.1 33.9 -82.1 -3.232
15:10 1021 30.15 850 25.1 23.7 74.7 22 1.3 34.3 -82.1 -3.232
15:11 1021 30.15 850 25.1 23.5 74.2 24 2.1 35.8 -82.1 -3.232
15:12 1021 30.15 850 25.1 23.3 74 24 1.6 35 -82.1 -3.232
15:13 1021 30.15 850 25.1 23.3 73.9 26 2.7 36.8 -82.1 -3.232
15:14 1021 30.15 850 25.1 23.4 74.1 25 2.4 36.2 -82 -3.228
15:15 1021 30.15 850 25.1 23.3 74 25 2.2 36 -82 -3.228
15:16 1021 30.15 850 25.1 23.3 73.9 22 0.8 33.4 -82 -3.228
15:17 1021 30.15 850 25.1 23.2 73.7 23 1.4 34.4 -81.9 -3.224
15:18 1021 30.15 850 25.1 23.2 73.7 24 1.6 34.9 -81.9 -3.224
15:19 1021 30.15 850 25.1 23.3 73.9 23 1 33.9 -81.9 -3.224
15:20 1021 30.15 850 25.1 23.2 73.8 23 1.2 34.2 -81.8 -3.22
15:21 1021 30.15 850 25.1 23.3 73.9 23 0.9 33.7 -81.8 -3.22
15:22 1021 30.15 850 25.1 23.4 74 23 1.3 34.3 -81.7 -3.217
15:23 1021 30.15 850 25.1 23.4 74.1 23 1.2 34.2 -81.7 -3.217
15:24 1021 30.15 850 25.1 23.4 74.2 24 1.7 35.1 -81.7 -3.217
15:25 1021 30.15 850 25.1 23.5 74.2 24 1.7 35.1 -81.6 -3.213
15:26 1021 30.15 850 25.1 23.5 74.4 23 1.5 34.7 -81.6 -3.213
15:27 1021 30.15 850 25.1 23.6 74.4 22 0.8 33.5 -81.6 -3.213
15:28 1021 30.15 850 25.1 23.5 74.3 22 0.8 33.4 -81.5 -3.209
15:29 1021 30.15 850 25.1 23.6 74.5 24 2.1 35.8 -81.5 -3.209
15:30 1021 30.15 850 25.1 23.7 74.7 23 1.3 34.4 -81.4 -3.205
15:31 1021 30.15 850 25.1 23.5 74.3 24 2.1 35.7 -81.4 -3.205
15:32 1021 30.15 850 25.1 23.4 74.1 23 1.5 34.7 -81.4 -3.205
15:33 1021 30.15 850 25.1 23.4 74.1 22 1 33.7 -81.3 -3.201
15:34 1021 30.15 850 25.1 23.4 74 23 1.5 34.7 -81.3 -3.201
15:35 1021 30.15 850 25.1 23.5 74.4 23 1.4 34.5 -81.3 -3.201
15:36 1021 30.15 850 25.1 23.6 74.5 23 1.6 34.9 -81.3 -3.201
15:37 1021 30.15 850 25.1 23.8 74.9 21 0.6 33 -81.2 -3.197
15:38 1021 30.15 850 25.1 23.8 74.9 22 1.2 34.1 -81.2 -3.197
15:39 1021 30.15 850 25.1 23.8 74.8 22 1.3 34.4 -81.1 -3.193
15:40 1021 30.15 850 25.1 23.6 74.5 25 2.8 37.1 -81.1 -3.193
15:41 1021 30.15 850 25.1 23.5 74.3 26 3.3 37.9 -81.1 -3.193
15:42 1021 30.15 850 25.1 23.5 74.3 25 2.8 37 -81 -3.189
15:43 1021 30.15 850 25.1 23.5 74.2 27 3.7 38.6 -81 -3.189
15:44 1021 30.15 850 25.1 23.6 74.4 23 1.4 34.6 -80.9 -3.185
15:45 1021 30.15 850 25.1 23.4 74.1 25 2.3 36.1 -80.9 -3.185
15:46 1021 30.15 850 25.1 23.3 74 23 1 33.9 -80.9 -3.185
15:47 1020 30.12 850 25.1 23.3 74 23 1.5 34.7 -80.9 -3.185
15:48 1020 30.12 850 25.1 23.3 74 22 0.8 33.4 -80.8 -3.181
15:49 1020 30.12 850 25.1 23.4 74.1 23 1.4 34.5 -80.8 -3.181
15:50 1020 30.12 850 25.1 23.4 74 25 2.6 36.8 -80.7 -3.177
15:51 1020 30.12 850 25.1 23.4 74.2 26 3.2 37.8 -80.7 -3.177
15:52 1020 30.12 850 25.1 23.5 74.2 24 1.7 35.1 -80.7 -3.177
15:53 1020 30.12 850 25.1 23.4 74.1 25 2.5 36.5 -80.7 -3.177
15:54 1020 30.12 850 25.1 23.4 74.1 25 2.4 36.3 -80.6 -3.173
15:55 1020 30.12 850 25.1 23.4 74.2 25 2.3 36.1 -80.6 -3.173
15:56 1020 30.12 850 25.1 23.5 74.2 23 1.5 34.7 -80.5 -3.169
15:57 1020 30.12 850 25.1 23.5 74.2 22 0.8 33.5 -80.5 -3.169
15:58 1020 30.12 850 25.1 23.6 74.4 25 2.8 37.1 -80.5 -3.169
15:59 1020 30.12 850 25.1 23.7 74.6 23 1.7 35.1 -80.5 -3.169
16:00 1020 30.12 850 25.1 23.8 74.8 25 2.8 37.1 -80.4 -3.165
16:01 1020 30.12 850 25.1 23.9 75 24 2.4 36.3 -80.4 -3.165
16:02 1020 30.12 850 25.1 24 75.1 23 1.7 35.1 -80.4 -3.165
16:03 1020 30.12 850 25.1 23.8 74.9 22 0.8 33.5 -80.4 -3.165
16:04 1020 30.12 850 25.1 23.8 74.8 22 1.2 34.2 -80.3 -3.161
16:05 1020 30.12 849 25.07 23.7 74.7 24 2.1 35.8 -80.3 -3.161
16:06 1020 30.12 849 25.07 23.7 74.7 22 1.2 34.2 -80.3 -3.161
16:07 1020 30.12 849 25.07 23.7 74.6 23 1.5 34.7 -80.3 -3.161
16:08 1020 30.12 849 25.07 23.7 74.7 24 2 35.6 -80.2 -3.157
16:09 1020 30.12 849 25.07 23.8 74.8 23 1.7 35 -80.2 -3.157
16:10 1020 30.12 849 25.07 23.8 74.8 22 1 33.9 -80.2 -3.157
16:11 1020 30.12 849 25.07 23.7 74.6 23 1.4 34.5 -80.2 -3.157
16:12 1020 30.12 849 25.07 23.6 74.4 23 1.3 34.4 -80.1 -3.154
16:13 1020 30.12 849 25.07 23.5 74.3 25 2.8 37.1 -80.1 -3.154
16:14 1020 30.12 849 25.07 23.6 74.5 23 1.2 34.2 -80.1 -3.154
16:15 1020 30.12 849 25.07 23.6 74.6 22 0.6 33.1 -80.1 -3.154
16:16 1020 30.12 849 25.07 23.7 74.6 24 2.1 35.7 -80 -3.15
16:17 1020 30.12 849 25.07 23.8 74.8 21 0.4 32.8 -80 -3.15
16:18 1020 30.12 849 25.07 23.8 74.8 21 0.3 32.6 -80 -3.15
16:19 1020 30.12 849 25.07 23.9 75 23 1.9 35.4 -80 -3.15
16:20 1020 30.12 849 25.07 23.9 75 23 1.5 34.8 -80 -3.15
16:21 1020 30.12 849 25.07 23.9 75 25 2.7 36.8 -79.9 -3.146
16:22 1020 30.12 849 25.07 23.9 75 23 1.7 35.1 -79.9 -3.146
16:23 1020 30.12 849 25.07 24 75.2 25 3.1 37.5 -79.9 -3.146
16:24 1020 30.12 849 25.07 24.2 75.5 23 1.7 35 -79.8 -3.142
16:25 1020 30.12 849 25.07 24.3 75.7 20 0.3 32.6 -79.8 -3.142
16:26 1020 30.12 849 25.07 24.2 75.6 20 -0.1 31.8 -79.8 -3.142
16:27 1020 30.12 849 25.07 24.1 75.5 23 1.7 35 -79.7 -3.138
16:28 1020 30.12 849 25.07 24.2 75.5 20 0.3 32.6 -79.7 -3.138
16:29 1020 30.12 849 25.07 24.2 75.6 23 1.7 35.1 -79.7 -3.138
16:30 1020 30.12 849 25.07 24.3 75.7 23 2.3 36.1 -79.7 -3.138
16:31 1020 30.12 849 25.07 24.3 75.8 20 0.1 32.1 -79.6 -3.134
16:32 1020 30.12 849 25.07 24.3 75.8 20 0.3 32.5 -79.6 -3.134
16:33 1020 30.12 849 25.07 24.2 75.6 20 -0.2 31.6 -79.6 -3.134
16:34 1020 30.12 849 25.07 24.2 75.5 21 0.7 33.3 -79.6 -3.134
16:35 1020 30.12 849 25.07 24.2 75.5 20 0.2 32.3 -79.6 -3.134
16:36 1020 30.12 849 25.07 24.2 75.5 20 -0.3 31.5 -79.5 -3.13
16:37 1020 30.12 849 25.07 24.2 75.5 23 1.7 35 -79.5 -3.13
16:38 1020 30.12 849 25.07 24.2 75.6 19 -0.5 31.1 -79.5 -3.13
16:39 1020 30.12 849 25.07 24.3 75.8 20 0.2 32.4 -79.5 -3.13
16:40 1020 30.12 849 25.07 24.4 75.9 21 0.9 33.6 -79.4 -3.126
16:41 1020 30.12 849 25.07 24.4 75.9 19 -0.8 30.5 -79.4 -3.126
16:42 1020 30.12 849 25.07 24.3 75.8 19 -0.2 31.6 -79.4 -3.126
16:43 1020 30.12 849 25.07 24.3 75.7 21 0.5 32.9 -79.4 -3.126
16:44 1020 30.12 849 25.07 24.3 75.7 22 1.7 35 -79.4 -3.126
16:45 1020 30.12 849 25.07 24.3 75.8 18 -0.9 30.4 -79.3 -3.122
16:46 1020 30.12 849 25.07 24.3 75.7 20 -0.1 31.8 -79.3 -3.122
16:47 1020 30.12 849 25.07 24.2 75.6 18 -1 30.2 -79.3 -3.122
16:48 1020 30.12 849 25.07 24.2 75.6 21 0.4 32.8 -79.3 -3.122
16:49 1020 30.12 849 25.07 24.3 75.7 20 -0 31.9 -79.3 -3.122
16:50 1020 30.12 849 25.07 24.2 75.5 21 0.8 33.4 -79.3 -3.122
16:51 1020 30.12 849 25.07 24 75.3 24 2.2 36 -79.2 -3.118
16:52 1020 30.12 849 25.07 23.9 75.1 23 1.9 35.4 -79.2 -3.118
16:53 1020 30.12 849 25.07 23.8 74.9 24 2.3 36.1 -79.2 -3.118
16:54 1020 30.12 849 25.07 23.7 74.7 22 1.2 34.1 -79.2 -3.118
16:55 1020 30.12 849 25.07 23.7 74.6 24 2.1 35.8 -79.2 -3.118
16:56 1020 30.12 849 25.07 23.7 74.6 23 1.6 34.8 -79.2 -3.118
16:57 1020 30.12 849 25.07 23.7 74.6 22 1.2 34.1 -79.2 -3.118
16:58 1020 30.12 849 25.07 23.6 74.6 23 1.4 34.5 -79.2 -3.118
16:59 1020 30.12 849 25.07 23.6 74.4 23 1.5 34.7 -79.2 -3.118
17:00 1020 30.12 849 25.07 23.5 74.3 24 2.1 35.8 -79.2 -3.118
17:01 1020 30.12 849 25.07 23.5 74.2 24 1.8 35.2 -79.1 -3.114
17:02 1020 30.12 849 25.07 23.4 74.1 22 0.7 33.3 -79.2 -3.118
17:03 1020 30.12 849 25.07 23.4 74 22 0.6 33.1 -79.2 -3.118
17:04 1020 30.12 849 25.07 23.3 74 22 0.6 33 -79.2 -3.118
17:05 1020 30.12 849 25.07 23.3 73.9 23 1.1 33.9 -79.2 -3.118
17:06 1020 30.12 849 25.07 23.3 73.9 23 1.2 34.2 -79.2 -3.118
17:07 1020 30.12 849 25.07 23.3 73.9 22 0.8 33.5 -79.2 -3.118
17:08 1020 30.12 849 25.07 23.2 73.8 22 0.5 32.9 -79.3 -3.122
17:09 1020 30.12 849 25.07 23.2 73.8 23 0.9 33.6 -79.3 -3.122
17:10 1020 30.12 849 25.07 23.3 73.9 22 0.6 33 -79.3 -3.122
17:11 1020 30.12 849 25.07 23.2 73.8 22 0.8 33.4 -79.3 -3.122
17:12 1020 30.12 849 25.07 23.2 73.8 24 1.5 34.7 -79.3 -3.122
17:13 1020 30.12 849 25.07 23.2 73.8 22 0.6 33.1 -79.3 -3.122
17:14 1020 30.12 849 25.07 23.2 73.8 23 1.3 34.3 -79.4 -3.126
17:15 1020 30.12 849 25.07 23.2 73.8 23 1.2 34.1 -79.4 -3.126
17:16 1020 30.12 849 25.07 23.2 73.8 22 0.8 33.4 -79.4 -3.126
17:17 1020 30.12 849 25.07 23.2 73.8 22 0.6 33 -79.4 -3.126
17:18 1020 30.12 849 25.07 23.3 73.9 22 0.4 32.7 -79.4 -3.126
17:19 1020 30.12 849 25.07 23.2 73.8 22 0.5 33 -79.5 -3.13
17:20 1020 30.12 849 25.07 23.1 73.6 23 1.3 34.3 -79.5 -3.13
17:21 1020 30.12 849 25.07 23.1 73.6 23 1 33.7 -79.6 -3.134
17:22 1020 30.12 849 25.07 23.1 73.5 24 1.4 34.4 -79.6 -3.134
17:23 1020 30.12 849 25.07 23 73.5 23 0.9 33.7 -79.6 -3.134
17:24 1020 30.12 849 25.07 23 73.5 24 1.7 35 -79.6 -3.134
17:25 1020 30.12 849 25.07 23.1 73.6 23 0.8 33.5 -79.6 -3.134
17:26 1020 30.12 849 25.07 23.1 73.6 24 1.5 34.7 -79.6 -3.134
17:27 1020 30.12 849 25.07 23.1 73.6 25 2 35.6 -79.7 -3.138
17:28 1020 30.12 849 25.07 23.1 73.5 23 0.8 33.4 -79.7 -3.138
17:29 1020 30.12 849 25.07 23 73.5 23 1.2 34.1 -79.7 -3.138
17:30 1020 30.12 849 25.07 23 73.4 23 1.2 34.1 -79.8 -3.142
17:31 1020 30.12 849 25.07 23 73.5 24 1.7 35.1 -79.8 -3.142
17:32 1020 30.12 849 25.07 23.1 73.5 23 1.2 34.2 -79.8 -3.142
17:33 1020 30.12 849 25.07 23.1 73.5 23 1.1 33.9 -79.8 -3.142
17:34 1020 30.12 849 25.07 23 73.5 22 0.6 33 -79.9 -3.146
17:35 1020 30.12 849 25.07 23 73.3 23 0.7 33.3 -79.9 -3.146
17:36 1020 30.12 849 25.07 22.9 73.2 22 0.4 32.7 -80 -3.15
17:37 1020 30.12 849 25.07 22.9 73.3 23 1.1 34 -80 -3.15
17:38 1020 30.12 849 25.07 22.9 73.2 25 2 35.7 -80 -3.15
17:39 1020 30.12 849 25.07 22.9 73.3 24 1.8 35.2 -80 -3.15
17:40 1020 30.12 849 25.07 23 73.3 22 0.4 32.8 -80 -3.15
17:41 1020 30.12 849 25.07 23 73.3 22 0.5 32.9 -80.1 -3.154
17:42 1020 30.12 849 25.07 22.9 73.3 24 1.4 34.4 -80.1 -3.154
17:43 1020 30.12 849 25.07 23 73.4 24 1.4 34.5 -80.1 -3.154
17:44 1020 30.12 849 25.07 23 73.3 22 0.4 32.6 -80.2 -3.157
17:45 1020 30.12 849 25.07 22.9 73.3 22 0 32 -80.2 -3.157
17:46 1020 30.12 849 25.07 22.9 73.2 24 1.2 34.2 -80.2 -3.157
17:47 1020 30.12 849 25.07 22.9 73.2 23 0.6 33.1 -80.3 -3.161
17:48 1020 30.12 849 25.07 22.9 73.1 23 0.8 33.4 -80.3 -3.161
17:49 1020 30.12 849 25.07 22.8 73.1 23 1.1 34 -80.3 -3.161
17:50 1020 30.12 849 25.07 22.8 73.1 23 0.7 33.3 -80.4 -3.165
17:51 1020 30.12 849 25.07 22.8 73.1 24 1.3 34.3 -80.4 -3.165
17:52 1020 30.12 849 25.07 22.8 73 23 0.8 33.4 -80.4 -3.165
17:53 1020 30.12 849 25.07 22.7 72.9 23 0.8 33.4 -80.5 -3.169
17:54 1020 30.12 849 25.07 22.7 72.9 23 0.8 33.5 -80.5 -3.169
17:55 1020 30.12 849 25.07 22.7 72.9 23 0.9 33.6 -80.5 -3.169
17:56 1020 30.12 849 25.07 22.6 72.7 22 0.3 32.5 -80.5 -3.169
17:57 1020 30.12 849 25.07 22.7 72.8 23 0.6 33 -80.6 -3.173
17:58 1020 30.12 849 25.07 22.7 72.8 22 0.1 32.1 -80.6 -3.173
17:59 1020 30.12 849 25.07 22.7 72.9 23 0.5 32.9 -80.7 -3.177
18:00 1020 30.12 849 25.07 22.7 72.8 23 0.9 33.6 -80.7 -3.177
18:01 1020 30.12 849 25.07 22.7 72.8 23 0.5 33 -80.7 -3.177
18:02 1020 30.12 849 25.07 22.7 72.8 23 0.9 33.6 -80.7 -3.177
18:03 1020 30.12 849 25.07 22.6 72.7 24 0.9 33.7 -80.7 -3.177
18:04 1020 30.12 849 25.07 22.6 72.6 24 1.3 34.4 -80.8 -3.181
18:05 1020 30.12 849 25.07 22.6 72.6 25 1.6 34.8 -80.8 -3.181
18:06 1020 30.12 849 25.07 22.6 72.7 24 1.1 34 -80.8 -3.181
18:07 1020 30.12 849 25.07 22.6 72.6 23 0.8 33.4 -80.8 -3.181
18:08 1020 30.12 849 25.07 22.5 72.6 23 0.6 33.1 -80.9 -3.185
18:09 1020 30.12 849 25.07 22.5 72.5 23 0.3 32.6 -80.9 -3.185
18:10 1020 30.12 849 25.07 22.5 72.5 23 0.4 32.8 -80.9 -3.185
18:11 1020 30.12 849 25.07 22.5 72.6 22 0 32.1 -81 -3.189
18:12 1020 30.12 849 25.07 22.5 72.6 23 0.5 33 -81 -3.189
18:13 1020 30.12 849 25.07 22.5 72.5 22 0 32.1 -81.1 -3.193
18:14 1020 30.12 849 25.07 22.5 72.5 22 0.1 32.2 -81.1 -3.193
18:15 1020 30.12 849 25.07 22.5 72.5 24 0.9 33.6 -81.1 -3.193
18:16 1020 30.12 849 25.07 22.5 72.5 23 0.4 32.7 -81.1 -3.193
18:17 1020 30.12 850 25.1 22.5 72.4 23 0.6 33.1 -81.2 -3.197
18:18 1020 30.12 850 25.1 22.4 72.3 24 1 33.8 -81.2 -3.197
18:19 1020 30.12 850 25.1 22.4 72.2 25 1.5 34.8 -81.2 -3.197
18:20 1020 30.12 849 25.07 22.3 72.1 24 0.8 33.4 -81.3 -3.201
18:21 1020 30.12 850 25.1 22.2 72 24 0.6 33.1 -81.3 -3.201
18:22 1020 30.12 850 25.1 22.2 72 24 0.8 33.4 -81.3 -3.201
18:23 1020 30.12 850 25.1 22.2 72 25 1.5 34.7 -81.3 -3.201
18:24 1020 30.12 850 25.1 22.2 72 27 2.3 36.1 -81.4 -3.205
18:25 1020 30.12 850 25.1 22.2 71.9 24 0.9 33.5 -81.4 -3.205
18:26 1020 30.12 850 25.1 22.2 71.9 23 0.5 32.9 -81.4 -3.205
18:27 1020 30.12 850 25.1 22.2 71.9 25 1.3 34.4 -81.5 -3.209
18:28 1020 30.12 850 25.1 22.2 71.9 24 1.1 34 -81.5 -3.209
18:29 1020 30.12 850 25.1 22.1 71.8 25 1.3 34.3 -81.6 -3.213
18:30 1020 30.12 850 25.1 22 71.6 24 1 33.7 -81.6 -3.213
18:31 1020 30.12 850 25.1 21.9 71.5 24 0.7 33.3 -81.6 -3.213
18:32 1020 30.12 850 25.1 21.9 71.5 24 0.8 33.4 -81.7 -3.217
18:33 1020 30.12 850 25.1 21.9 71.3 25 0.9 33.7 -81.7 -3.217
18:34 1020 30.12 850 25.1 21.8 71.2 23 -0.2 31.7 -81.7 -3.217
18:35 1020 30.12 850 25.1 21.8 71.3 25 1.3 34.4 -81.8 -3.22
18:36 1020 30.12 850 25.1 21.7 71.1 26 1.4 34.5 -81.8 -3.22
18:37 1020 30.12 850 25.1 21.5 70.8 26 1.6 34.9 -81.8 -3.22
18:38 1020 30.12 850 25.1 21.5 70.7 26 1.4 34.6 -81.9 -3.224
18:39 1020 30.12 850 25.1 21.5 70.8 26 1.5 34.7 -81.9 -3.224
18:40 1020 30.12 850 25.1 21.4 70.6 27 1.8 35.2 -81.9 -3.224
18:41 1020 30.12 850 25.1 21.3 70.4 27 1.7 35.1 -82 -3.228
18:42 1020 30.12 850 25.1 21.1 70 28 2.2 36 -82 -3.228
18:43 1020 30.12 850 25.1 20.9 69.7 27 1.2 34.1 -82.1 -3.232
18:44 1020 30.12 850 25.1 20.9 69.6 27 1.2 34.2 -82.1 -3.232
18:45 1020 30.12 850 25.1 20.8 69.5 28 1.6 35 -82.1 -3.232
18:46 1020 30.12 850 25.1 20.9 69.5 29 2.2 35.9 -82.2 -3.236
18:47 1020 30.12 850 25.1 20.7 69.2 30 2.5 36.5 -82.2 -3.236
18:48 1020 30.12 850 25.1 20.4 68.6 31 2.8 37 -82.3 -3.24
18:49 1020 30.12 850 25.1 20 67.9 31 2.6 36.6 -82.3 -3.24
18:50 1020 30.12 850 25.1 19.8 67.6 29 1.3 34.3 -82.3 -3.24
18:51 1020 30.12 850 25.1 19.8 67.7 27 0.6 33.2 -82.4 -3.244
18:52 1020 30.12 850 25.1 20 67.9 27 0.7 33.3 -82.5 -3.248
18:53 1020 30.12 850 25.1 20 68.1 28 1 33.9 -82.5 -3.248
18:54 1020 30.12 850 25.1 20.1 68.2 29 1.6 34.8 -82.6 -3.252
18:55 1021 30.15 850 25.1 20 68 30 2.3 36.1 -82.6 -3.252
18:56 1021 30.15 850 25.1 19.8 67.6 31 2.3 36.2 -82.7 -3.256
18:57 1021 30.15 850 25.1 19.6 67.3 28 0.6 33.2 -82.7 -3.256
18:58 1021 30.15 850 25.1 19.7 67.4 27 0.1 32.2 -82.8 -3.26
18:59 1021 30.15 850 25.1 20 67.9 25 -0.2 31.6 -82.8 -3.26
19:00 1021 30.15 850 25.1 20.2 68.4 25 -0.1 31.8 -82.9 -3.264
19:01 1021 30.15 850 25.1 20.4 68.8 28 1.3 34.3 -82.9 -3.264
19:02 1021 30.15 850 25.1 20.4 68.6 29 1.8 35.2 -83 -3.268
19:03 1021 30.15 850 25.1 20.2 68.4 28 1.2 34.2 -83 -3.268
19:04 1021 30.15 850 25.1 20 68 31 2.4 36.3 -83.1 -3.272
19:05 1021 30.15 850 25.1 19.6 67.4 34 3.5 38.3 -83.2 -3.276
19:06 1021 30.15 850 25.1 19.1 66.4 36 3.8 38.8 -83.2 -3.276
19:07 1021 30.15 850 25.1 18.6 65.5 32 1.8 35.3 -83.3 -3.28
19:08 1021 30.15 850 25.1 18.4 65 38 4 39.2 -83.3 -3.28
19:09 1021 30.15 850 25.1 18.1 64.6 35 2.4 36.3 -83.3 -3.28
19:10 1021 30.15 850 25.1 18.1 64.6 32 1.1 34 -83.4 -3.283
19:11 1021 30.15 850 25.1 18.4 65.1 29 0.2 32.4 -83.5 -3.287
19:12 1021 30.15 850 25.1 18.8 65.8 29 0.6 33.2 -83.5 -3.287
19:13 1021 30.15 850 25.1 19.1 66.4 27 -0.4 31.3 -83.6 -3.291
19:14 1021 30.15 850 25.1 19.4 66.9 30 1.4 34.5 -83.6 -3.291
19:15 1021 30.15 850 25.1 19.4 67 34 3.3 38 -83.7 -3.295
19:16 1021 30.15 850 25.1 19 66.2 34 3 37.4 -83.8 -3.299
19:17 1021 30.15 850 25.1 18.5 65.4 31 1.1 34 -83.8 -3.299
19:18 1021 30.15 850 25.1 18.4 65.1 32 1.5 34.6 -83.9 -3.303
19:19 1021 30.15 850 25.1 18.4 65.2 36 3.1 37.6 -83.9 -3.303
19:20 1021 30.15 850 25.1 18.4 65.1 34 2.2 36 -84 -3.307
19:21 1021 30.15 850 25.1 18.2 64.8 33 2 35.5 -84 -3.307
19:22 1021 30.15 850 25.1 18.2 64.8 33 1.8 35.3 -84.1 -3.311
19:23 1021 30.15 850 25.1 18.2 64.7 31 1 33.7 -84.1 -3.311
19:24 1021 30.15 850 25.1 18.4 65.2 30 0.6 33.1 -84.2 -3.315
19:25 1021 30.15 850 25.1 18.8 65.8 29 0.5 32.9 -84.3 -3.319
19:26 1021 30.15 850 25.1 19.1 66.4 31 2 35.5 -84.3 -3.319
19:27 1021 30.15 850 25.1 19.2 66.5 27 0.1 32.2 -84.4 -3.323
19:28 1021 30.15 850 25.1 19.3 66.7 27 -0.1 31.8 -84.4 -3.323
19:29 1021 30.15 850 25.1 19.4 66.9 35 3.9 38.9 -84.5 -3.327
19:30 1021 30.15 850 25.1 17.9 64.1 40 4.3 39.8 -84.5 -3.327
19:31 1021 30.15 850 25.1 16.3 61.4 45 4.4 39.9 -84.6 -3.331
19:32 1021 30.15 850 25.1 15.3 59.6 44 3.4 38.1 -84.6 -3.331
19:33 1021 30.15 850 25.1 14.9 58.8 49 4.4 39.9 -84.6 -3.331
19:34 1021 30.15 850 25.1 14.2 57.6 50 3.9 39.1 -84.7 -3.335
19:35 1021 30.15 850 25.1 13.8 56.8 53 4.4 39.9 -84.7 -3.335
19:36 1021 30.15 850 25.1 13.3 55.9 54 4.4 39.9 -84.8 -3.339
19:37 1021 30.15 850 25.1 12.9 55.2 55 4.2 39.6 -84.8 -3.339
19:38 1021 30.15 850 25.1 12.7 54.8 57 4.4 39.9 -84.8 -3.339
19:39 1021 30.15 850 25.1 12.4 54.4 55 3.8 38.8 -84.9 -3.343
19:40 1021 30.15 850 25.1 12.5 54.5 56 4 39.2 -84.9 -3.343
19:41 1021 30.15 850 25.1 12.4 54.4 57 4.3 39.8 -85 -3.346
19:42 1021 30.15 850 25.1 12.1 53.8 59 4.3 39.8 -85 -3.346
19:43 1021 30.15 850 25.1 11.9 53.3 59 4.1 39.5 -85.1 -3.35
19:44 1021 30.15 850 25.1 11.7 53 59 3.9 39 -85.1 -3.35
19:45 1021 30.15 850 25.1 11.7 53 59 4 39.2 -85.1 -3.35
19:46 1021 30.15 850 25.1 11.6 52.8 58 3.7 38.7 -85.2 -3.354
19:47 1021 30.15 850 25.1 11.5 52.6 58 3.6 38.5 -85.2 -3.354
19:48 1021 30.15 850 25.1 11.4 52.6 58 3.4 38.1 -85.3 -3.358
19:49 1021 30.15 850 25.1 11.4 52.5 59 3.6 38.5 -85.3 -3.358
19:50 1021 30.15 850 25.1 11.2 52.2 59 3.5 38.2 -85.4 -3.362
19:51 1021 30.15 850 25.1 11.2 52.2 59 3.6 38.5 -85.4 -3.362
19:52 1021 30.15 850 25.1 11.4 52.4 57 3.3 37.9 -85.5 -3.366
19:53 1021 30.15 850 25.1 11.8 53.2 57 3.5 38.3 -85.5 -3.366
19:54 1021 30.15 850 25.1 11.9 53.4 56 3.4 38.2 -85.6 -3.37
19:55 1021 30.15 850 25.1 11.9 53.4 55 3.2 37.8 -85.6 -3.37
19:56 1021 30.15 850 25.1 11.9 53.4 56 3.4 38.1 -85.7 -3.374
19:57 1021 30.15 850 25.1 11.7 53 58 3.7 38.6 -85.7 -3.374
19:58 1021 30.15 850 25.1 11.4 52.5 58 3.5 38.4 -85.8 -3.378
19:59 1021 30.15 850 25.1 11.2 52.2 59 3.5 38.3 -85.8 -3.378
20:00 1021 30.15 850 25.1 11.1 52 59 3.4 38.2 -85.9 -3.382
20:01 1021 30.15 850 25.1 11 51.8 60 3.7 38.6 -85.9 -3.382
20:02 1021 30.15 850 25.1 10.9 51.5 60 3.5 38.3 -85.9 -3.382
20:03 1021 30.15 850 25.1 10.7 51.3 62 3.8 38.8 -86 -3.386
20:04 1021 30.15 850 25.1 10.6 51.2 62 3.8 38.8 -86 -3.386
20:05 1021 30.15 850 25.1 10.6 51.2 62 3.7 38.6 -86 -3.386
20:06 1021 30.15 850 25.1 10.6 51.1 62 3.7 38.6 -86.1 -3.39
20:07 1021 30.15 850 25.1 10.6 51 63 3.8 38.9 -86.1 -3.39
20:08 1021 30.15 850 25.1 10.5 50.8 63 3.8 38.8 -86.2 -3.394
20:09 1021 30.15 850 25.1 10.4 50.8 62 3.5 38.3 -86.2 -3.394
20:10 1021 30.15 850 25.1 10.6 51 63 3.8 38.8 -86.2 -3.394
20:11 1021 30.15 850 25.1 10.5 50.9 63 3.8 38.9 -86.3 -3.398
20:12 1021 30.15 850 25.1 10.3 50.5 64 3.7 38.7 -86.3 -3.398
20:13 1021 30.15 850 25.1 10.1 50.1 63 3.4 38.2 -86.3 -3.398
20:14 1021 30.15 850 25.1 10.1 50.2 63 3.5 38.2 -86.3 -3.398
20:15 1021 30.15 850 25.1 10.2 50.3 62 3.3 38 -86.4 -3.402
20:16 1021 30.15 850 25.1 10.3 50.6 61 3.1 37.7 -86.4 -3.402
20:17 1021 30.15 850 25.1 10.5 51 60 3.2 37.8 -86.5 -3.406
20:18 1021 30.15 850 25.1 10.6 51.1 61 3.4 38.1 -86.5 -3.406
20:19 1021 30.15 850 25.1 10.6 51 60 3.3 37.9 -86.5 -3.406
20:20 1021 30.15 850 25.1 10.6 51 60 3.3 37.9 -86.5 -3.406
20:21 1021 30.15 850 25.1 10.6 51.1 60 3.3 38 -86.6 -3.409
20:22 1021 30.15 850 25.1 10.6 51.1 59 3 37.4 -86.6 -3.409
20:23 1021 30.15 850 25.1 10.8 51.4 59 3.2 37.7 -86.7 -3.413
20:24 1021 30.15 850 25.1 10.9 51.5 59 3.3 38 -86.7 -3.413
20:25 1021 30.15 850 25.1 10.9 51.6 60 3.5 38.3 -86.7 -3.413
20:26 1021 30.15 850 25.1 10.7 51.3 60 3.3 37.9 -86.7 -3.413
20:27 1021 30.15 850 25.1 10.7 51.3 59 3.1 37.7 -86.7 -3.413
20:28 1021 30.15 850 25.1 10.9 51.6 58 3.1 37.5 -86.8 -3.417
20:29 1021 30.15 850 25.1 11 51.9 58 3.1 37.6 -86.8 -3.417
20:30 1021 30.15 850 25.1 11 51.8 59 3.3 38 -86.8 -3.417
20:31 1021 30.15 850 25.1 10.9 51.6 59 3.3 37.9 -86.9 -3.421
20:32 1021 30.15 850 25.1 10.7 51.2 60 3.4 38.1 -86.9 -3.421
20:33 1021 30.15 850 25.1 10.3 50.6 62 3.4 38.2 -86.9 -3.421
20:34 1021 30.15 850 25.1 10.1 50.2 62 3.2 37.8 -86.9 -3.421
20:35 1021 30.15 850 25.1 10.1 50.1 62 3.1 37.5 -86.9 -3.421
20:36 1021 30.15 850 25.1 10.1 50.2 61 3 37.5 -87 -3.425
20:37 1021 30.15 850 25.1 10.2 50.3 61 3 37.4 -87 -3.425
20:38 1021 30.15 850 25.1 10.1 50.2 61 2.9 37.3 -87 -3.425
20:39 1021 30.15 850 25.1 10.1 50.2 61 3 37.5 -87 -3.425
20:40 1021 30.15 850 25.1 10.1 50.1 61 2.9 37.2 -87.1 -3.429
20:41 1021 30.15 850 25.1 10.1 50.1 60 2.8 37 -87.1 -3.429
20:42 1021 30.15 850 25.1 10.2 50.3 60 2.8 37 -87.1 -3.429
20:43 1021 30.15 850 25.1 10.3 50.5 59 2.6 36.6 -87.1 -3.429
20:44 1021 30.15 850 25.1 10.4 50.7 59 2.7 36.8 -87.2 -3.433
20:45 1021 30.15 850 25.1 10.5 50.8 57 2.3 36.1 -87.2 -3.433
20:46 1021 30.15 850 25.1 10.8 51.4 54 1.9 35.4 -87.2 -3.433
20:47 1021 30.15 850 25.1 11.3 52.3 51 1.6 34.8 -87.2 -3.433
20:48 1021 30.15 850 25.1 11.9 53.4 48 1.4 34.4 -87.2 -3.433
20:49 1021 30.15 850 25.1 12.5 54.5 46 1.3 34.4 -87.3 -3.437
20:50 1021 30.15 850 25.1 12.9 55.3 47 1.9 35.5 -87.3 -3.437
20:51 1021 30.15 850 25.1 13 55.5 48 2.2 36 -87.3 -3.437
20:52 1021 30.15 850 25.1 12.8 55.1 49 2.3 36.2 -87.3 -3.437
20:53 1021 30.15 850 25.1 12.4 54.4 51 2.6 36.6 -87.4 -3.441
20:54 1021 30.15 850 25.1 12.1 53.8 52 2.5 36.5 -87.4 -3.441
20:55 1021 30.15 850 25.1 11.9 53.4 52 2.5 36.5 -87.4 -3.441
20:56 1021 30.15 851 25.13 11.6 52.9 53 2.5 36.4 -87.4 -3.441
20:57 1021 30.15 851 25.13 11.5 52.7 53 2.3 36.2 -87.4 -3.441
20:58 1021 30.15 851 25.13 11.5 52.7 52 2 35.5 -87.4 -3.441
20:59 1021 30.15 851 25.13 11.7 53.1 51 1.9 35.4 -87.4 -3.441
21:00 1021 30.15 851 25.13 11.9 53.5 50 1.8 35.3 -87.4 -3.441
21:01 1021 30.15 851 25.13 12.1 53.8 49 1.7 35 -87.4 -3.441
21:02 1021 30.15 851 25.13 12.4 54.2 48 1.6 35 -87.5 -3.445
21:03 1021 30.15 851 25.13 12.6 54.6 47 1.7 35.1 -87.5 -3.445
21:04 1021 30.15 851 25.13 12.7 54.8 46 1.6 34.8 -87.5 -3.445
21:05 1021 30.15 850 25.1 12.9 55.1 45 1.4 34.5 -87.5 -3.445
21:06 1021 30.15 850 25.1 13 55.5 45 1.5 34.6 -87.5 -3.445
21:07 1021 30.15 851 25.13 13.3 55.9 44 1.3 34.4 -87.5 -3.445
21:08 1021 30.15 851 25.13 13.4 56.1 43 1.1 33.9 -87.5 -3.445
21:09 1021 30.15 850 25.1 13.6 56.5 42 1.1 34 -87.6 -3.449
21:10 1021 30.15 850 25.1 13.8 56.9 41 1 33.9 -87.6 -3.449
21:11 1021 30.15 851 25.13 14 57.2 41 1.1 33.9 -87.6 -3.449
21:12 1021 30.15 851 25.13 14.1 57.3 41 1.2 34.2 -87.6 -3.449
21:13 1021 30.15 851 25.13 14.1 57.4 42 1.4 34.4 -87.6 -3.449
21:14 1021 30.15 851 25.13 14.1 57.4 42 1.4 34.5 -87.6 -3.449
21:15 1021 30.15 851 25.13 14.1 57.4 41 1.3 34.3 -87.6 -3.449
21:16 1021 30.15 851 25.13 14.1 57.3 41 1.2 34.2 -87.6 -3.449
21:17 1021 30.15 851 25.13 14.1 57.4 42 1.4 34.5 -87.6 -3.449
21:18 1021 30.15 851 25.13 14 57.2 42 1.4 34.4 -87.6 -3.449
21:19 1021 30.15 851 25.13 14 57.2 42 1.4 34.5 -87.6 -3.449
21:20 1021 30.15 851 25.13 14 57.3 42 1.5 34.7 -87.6 -3.449
21:21 1021 30.15 851 25.13 14 57.2 42 1.5 34.6 -87.6 -3.449
21:22 1021 30.15 851 25.13 13.9 57.1 42 1.4 34.5 -87.6 -3.449
21:23 1021 30.15 851 25.13 13.9 57.1 42 1.3 34.4 -87.6 -3.449
21:24 1021 30.15 851 25.13 14 57.2 42 1.5 34.7 -87.6 -3.449
21:25 1021 30.15 851 25.13 14 57.1 42 1.4 34.5 -87.6 -3.449
21:26 1021 30.15 851 25.13 13.9 57.1 43 1.5 34.8 -87.6 -3.449
21:27 1021 30.15 851 25.13 13.9 57 43 1.5 34.7 -87.6 -3.449
21:28 1021 30.15 851 25.13 13.9 57 43 1.6 34.8 -87.6 -3.449
21:29 1021 30.15 851 25.13 13.8 56.9 43 1.6 34.9 -87.6 -3.449
21:30 1021 30.15 851 25.13 13.7 56.7 44 1.6 34.9 -87.6 -3.449
21:31 1021 30.15 851 25.13 13.7 56.6 44 1.6 34.8 -87.6 -3.449
21:32 1021 30.15 851 25.13 13.6 56.4 44 1.5 34.7 -87.6 -3.449
21:33 1021 30.15 851 25.13 13.6 56.4 44 1.6 34.9 -87.6 -3.449
21:34 1021 30.15 851 25.13 13.5 56.3 44 1.7 35.1 -87.7 -3.453
21:35 1021 30.15 851 25.13 13.4 56.1 45 1.7 35.1 -87.7 -3.453
21:36 1021 30.15 851 25.13 13.2 55.8 45 1.6 34.9 -87.6 -3.449
21:37 1021 30.15 851 25.13 13.1 55.6 47 2 35.6 -87.7 -3.453
21:38 1021 30.15 851 25.13 12.6 54.7 50 2.5 36.5 -87.7 -3.453
21:39 1021 30.15 851 25.13 11.8 53.2 53 2.5 36.5 -87.7 -3.453
21:40 1021 30.15 851 25.13 11.2 52.1 54 2.3 36.2 -87.7 -3.453
21:41 1021 30.15 851 25.13 10.7 51.3 55 2 35.7 -87.7 -3.453
21:42 1021 30.15 851 25.13 10.6 51 55 2.1 35.7 -87.7 -3.453
21:43 1021 30.15 851 25.13 10.5 50.8 55 1.9 35.5 -87.7 -3.453
21:44 1021 30.15 851 25.13 10.4 50.6 56 2 35.7 -87.7 -3.453
21:45 1022 30.18 851 25.13 10.1 50.2 56 1.7 35.1 -87.7 -3.453
21:46 1022 30.18 851 25.13 10.1 50.2 56 1.8 35.2 -87.7 -3.453
21:47 1022 30.18 851 25.13 10.1 50.1 56 1.7 35.1 -87.7 -3.453
21:48 1022 30.18 851 25.13 10.1 50.2 57 1.9 35.5 -87.7 -3.453
21:49 1022 30.18 851 25.13 10.1 50.2 56 1.9 35.4 -87.7 -3.453
21:50 1022 30.18 851 25.13 10.2 50.4 55 1.5 34.7 -87.8 -3.457
21:51 1022 30.18 851 25.13 10.4 50.8 54 1.6 34.9 -87.8 -3.457
21:52 1022 30.18 851 25.13 10.6 51.2 53 1.5 34.8 -87.8 -3.457
21:53 1022 30.18 851 25.13 10.8 51.4 52 1.5 34.7 -87.8 -3.457
21:54 1022 30.18 851 25.13 10.9 51.6 52 1.5 34.8 -87.8 -3.457
21:55 1022 30.18 851 25.13 10.9 51.7 52 1.5 34.7 -87.8 -3.457
21:56 1022 30.18 851 25.13 10.9 51.7 51 1.3 34.3 -87.8 -3.457
21:57 1022 30.18 851 25.13 11.1 51.9 51 1.4 34.5 -87.8 -3.457
21:58 1022 30.18 851 25.13 11 51.9 51 1.4 34.6 -87.9 -3.461
21:59 1022 30.18 851 25.13 11 51.8 51 1.4 34.6 -87.9 -3.461
22:00 1022 30.18 851 25.13 11.1 51.9 51 1.3 34.3 -87.9 -3.461
22:01 1022 30.18 851 25.13 11.3 52.3 50 1.2 34.2 -87.9 -3.461
22:02 1022 30.18 851 25.13 11.4 52.5 49 1.2 34.2 -87.9 -3.461
22:03 1022 30.18 851 25.13 11.5 52.6 50 1.4 34.5 -87.9 -3.461
22:04 1022 30.18 851 25.13 11.4 52.5 51 1.6 34.9 -87.9 -3.461
22:05 1022 30.18 851 25.13 11.1 52 52 1.6 34.8 -87.9 -3.461
22:06 1022 30.18 851 25.13 11 51.7 53 1.7 35.1 -88 -3.465
22:07 1022 30.18 851 25.13 10.8 51.4 54 1.8 35.2 -88 -3.465
22:08 1022 30.18 851 25.13 10.5 51 54 1.8 35.2 -88 -3.465
22:09 1022 30.18 851 25.13 10.3 50.5 55 1.7 35.1 -88 -3.465
22:10 1022 30.18 851 25.13 10.1 50.2 56 1.8 35.3 -88 -3.465
22:11 1022 30.18 851 25.13 10 50.1 56 1.7 35 -88 -3.465
22:12 1022 30.18 851 25.13 10.1 50.1 56 1.6 35 -88 -3.465
22:13 1022 30.18 851 25.13 10.1 50.1 56 1.7 35.1 -88 -3.465
22:14 1022 30.18 851 25.13 10 50 57 2 35.6 -88.1 -3.469
22:15 1022 30.18 851 25.13 9.6 49.3 59 2.1 35.7 -88.1 -3.469
22:16 1022 30.18 851 25.13 9.2 48.5 61 2.2 35.9 -88.1 -3.469
22:17 1022 30.18 851 25.13 8.7 47.6 63 2 35.7 -88.1 -3.469
22:18 1022 30.18 851 25.13 8.4 47.1 63 1.9 35.4 -88.1 -3.469
22:19 1022 30.18 851 25.13 8.4 47.1 63 1.8 35.3 -88.1 -3.469
22:20 1022 30.18 851 25.13 8.4 47 63 1.8 35.2 -88.1 -3.469
22:21 1022 30.18 851 25.13 8.4 47.2 62 1.6 34.8 -88.1 -3.469
22:22 1022 30.18 851 25.13 8.7 47.6 61 1.6 34.8 -88.1 -3.469
22:23 1022 30.18 851 25.13 8.9 48 60 1.5 34.7 -88.1 -3.469
22:24 1022 30.18 851 25.13 9.1 48.4 59 1.5 34.8 -88.2 -3.472
22:25 1022 30.18 851 25.13 9.3 48.7 59 1.6 34.9 -88.2 -3.472
22:26 1022 30.18 851 25.13 9.2 48.6 59 1.8 35.2 -88.2 -3.472
22:27 1022 30.18 851 25.13 9.1 48.4 60 1.8 35.2 -88.2 -3.472
22:28 1022 30.18 851 25.13 8.9 48.1 61 1.8 35.3 -88.2 -3.472
22:29 1022 30.18 851 25.13 8.7 47.7 62 1.8 35.2 -88.2 -3.472
22:30 1022 30.18 851 25.13 8.6 47.5 62 1.9 35.4 -88.2 -3.472
22:31 1022 30.18 851 25.13 8.6 47.5 62 1.7 35 -88.2 -3.472
22:32 1022 30.18 851 25.13 8.8 47.8 60 1.4 34.6 -88.2 -3.472
22:33 1022 30.18 851 25.13 9.1 48.4 58 1.4 34.5 -88.2 -3.472
22:34 1022 30.18 851 25.13 9.5 49.2 56 1.3 34.4 -88.3 -3.476
22:35 1022 30.18 851 25.13 10 50 55 1.4 34.5 -88.3 -3.476
22:36 1022 30.18 851 25.13 10.3 50.6 54 1.4 34.6 -88.3 -3.476
22:37 1022 30.18 851 25.13 10.6 51.1 53 1.4 34.5 -88.3 -3.476
22:38 1022 30.18 851 25.13 10.9 51.6 52 1.4 34.5 -88.3 -3.476
22:39 1022 30.18 851 25.13 11.1 52 51 1.4 34.5 -88.3 -3.476
22:40 1022 30.18 851 25.13 11.3 52.3 51 1.4 34.6 -88.3 -3.476
22:41 1022 30.18 851 25.13 11.4 52.5 50 1.5 34.8 -88.4 -3.48
22:42 1022 30.18 851 25.13 11.5 52.6 51 1.7 35.1 -88.4 -3.48
22:43 1022 30.18 851 25.13 11.4 52.6 50 1.5 34.8 -88.4 -3.48
22:44 1022 30.18 851 25.13 11.4 52.6 51 1.6 34.8 -88.4 -3.48
22:45 1022 30.18 851 25.13 11.4 52.5 51 1.6 34.9 -88.4 -3.48
22:46 1022 30.18 851 25.13 11.3 52.4 52 1.9 35.3 -88.4 -3.48
22:47 1022 30.18 851 25.13 11 51.7 53 1.9 35.4 -88.4 -3.48
22:48 1022 30.18 851 25.13 10.1 50.1 57 1.9 35.4 -88.4 -3.48
22:49 1022 30.18 851 25.13 9.4 48.9 57 1.3 34.4 -88.4 -3.48
22:50 1022 30.18 851 25.13 9.4 49 55 0.8 33.5 -88.5 -3.484
22:51 1022 30.18 851 25.13 9.9 49.9 52 0.5 32.9 -88.5 -3.484
22:52 1022 30.18 851 25.13 10.4 50.7 51 0.9 33.6 -88.5 -3.484
22:53 1022 30.18 851 25.13 10.6 51 51 0.8 33.5 -88.5 -3.484
22:54 1022 30.18 851 25.13 10.7 51.3 50 0.7 33.2 -88.5 -3.484
22:55 1022 30.18 851 25.13 10.8 51.5 50 0.9 33.7 -88.5 -3.484
22:56 1022 30.18 851 25.13 10.8 51.4 50 0.9 33.6 -88.5 -3.484
22:57 1022 30.18 851 25.13 10.7 51.2 50 0.6 33.1 -88.5 -3.484
22:58 1022 30.18 851 25.13 10.8 51.4 48 0.3 32.6 -88.5 -3.484
22:59 1022 30.18 851 25.13 11.3 52.3 44 -0.4 31.2 -88.6 -3.488
23:00 1022 30.18 851 25.13 12 53.6 43 -0.2 31.6 -88.6 -3.488
23:01 1022 30.18 851 25.13 12.4 54.3 42 0 32.1 -88.6 -3.488
23:02 1022 30.18 851 25.13 12.7 54.8 41 -0.1 31.9 -88.6 -3.488
23:03 1022 30.18 851 25.13 12.9 55.2 40 -0.2 31.6 -88.6 -3.488
23:04 1022 30.18 851 25.13 13.1 55.6 39 -0.5 31.2 -88.6 -3.488
23:05 1022 30.18 851 25.13 13.4 56.2 39 -0.1 31.9 -88.6 -3.488
23:06 1022 30.18 851 25.13 13.5 56.3 40 0.2 32.3 -88.6 -3.488
23:07 1022 30.18 851 25.13 13.3 56 40 0.2 32.3 -88.6 -3.488
23:08 1022 30.18 851 25.13 13.2 55.7 40 0.1 32.1 -88.6 -3.488
23:09 1022 30.18 851 25.13 13.1 55.6 41 0.1 32.2 -88.6 -3.488
23:10 1022 30.18 851 25.13 13 55.4 41 0 32.1 -88.6 -3.488
23:11 1022 30.18 851 25.13 12.9 55.3 41 0 32 -88.6 -3.488
23:12 1022 30.18 851 25.13 12.9 55.2 41 0 32.1 -88.6 -3.488
23:13 1022 30.18 851 25.13 12.9 55.2 41 -0.1 31.8 -88.6 -3.488
23:14 1022 30.18 851 25.13 13.1 55.5 36 -1.5 29.2 -88.6 -3.488
23:15 1022 30.18 851 25.13 13.8 56.9 33 -2.1 28.1 -88.6 -3.488
23:16 1022 30.18 851 25.13 14.6 58.4 32 -1.7 28.9 -88.7 -3.492
23:17 1022 30.18 851 25.13 15.1 59.2 31 -1.7 29 -88.7 -3.492
23:18 1022 30.18 851 25.13 15.6 60 33 -0.7 30.8 -88.7 -3.492
23:19 1022 30.18 851 25.13 15.4 59.8 34 -0.1 31.8 -88.7 -3.492
23:20 1022 30.18 851 25.13 15 58.9 37 0.3 32.6 -88.7 -3.492
23:21 1022 30.18 851 25.13 14.3 57.7 39 0.5 32.9 -88.7 -3.492
23:22 1022 30.18 851 25.13 13.8 56.8 40 0.5 32.9 -88.7 -3.492
23:23 1022 30.18 851 25.13 13.4 56.2 42 0.8 33.4 -88.7 -3.492
23:24 1022 30.18 851 25.13 13.1 55.6 41 0.3 32.5 -88.7 -3.492
23:25 1022 30.18 851 25.13 13.1 55.5 42 0.5 32.8 -88.7 -3.492
23:26 1022 30.18 851 25.13 13.2 55.7 42 0.5 32.9 -88.7 -3.492
23:27 1022 30.18 851 25.13 13.3 55.9 42 0.5 33 -88.7 -3.492
23:28 1022 30.18 851 25.13 13.3 55.9 41 0.5 32.9 -88.7 -3.492
23:29 1022 30.18 851 25.13 13.3 55.9 41 0.4 32.8 -88.7 -3.492
23:30 1022 30.18 851 25.13 13.3 55.9 41 0.5 32.9 -88.7 -3.492
23:31 1022 30.18 851 25.13 13.2 55.8 41 0.3 32.6 -88.7 -3.492
23:32 1022 30.18 851 25.13 13.2 55.8 41 0.5 32.8 -88.7 -3.492
23:33 1022 30.18 851 25.13 13.2 55.7 41 0.3 32.5 -88.7 -3.492
23:34 1022 30.18 851 25.13 13.1 55.6 41 0.1 32.2 -88.7 -3.492
23:35 1022 30.18 851 25.13 13.1 55.6 41 0.1 32.2 -88.7 -3.492
23:36 1022 30.18 851 25.13 13.1 55.6 41 0.2 32.4 -88.7 -3.492
23:37 1022 30.18 851 25.13 13.1 55.7 41 0.4 32.7 -88.7 -3.492
23:38 1022 30.18 851 25.13 13.2 55.7 41 0.4 32.7 -88.7 -3.492
23:39 1022 30.18 851 25.13 13.2 55.8 41 0.5 32.8 -88.7 -3.492
23:40 1022 30.18 851 25.13 13 55.4 42 0.3 32.6 -88.7 -3.492
23:41 1022 30.18 851 25.13 12.8 55.1 42 0.2 32.4 -88.7 -3.492
23:42 1022 30.18 851 25.13 12.8 55 42 0.1 32.2 -88.7 -3.492
23:43 1022 30.18 851 25.13 12.8 55 42 0.3 32.5 -88.7 -3.492
23:44 1022 30.18 851 25.13 12.7 54.8 43 0.5 32.9 -88.7 -3.492
23:45 1022 30.18 851 25.13 12.5 54.5 44 0.7 33.2 -88.7 -3.492
23:46 1022 30.18 851 25.13 12.2 54 44 0.4 32.8 -88.7 -3.492
23:47 1022 30.18 851 25.13 12.3 54.1 44 0.3 32.6 -88.7 -3.492
23:48 1022 30.18 851 25.13 12.4 54.3 43 0.1 32.3 -88.7 -3.492
23:49 1022 30.18 851 25.13 12.6 54.7 42 0.2 32.3 -88.7 -3.492
23:50 1022 30.18 851 25.13 12.8 55 42 0.2 32.3 -88.7 -3.492
23:51 1022 30.18 851 25.13 12.9 55.3 42 0.6 33 -88.7 -3.492
23:52 1022 30.18 851 25.13 12.9 55.1 43 0.7 33.2 -88.7 -3.492
23:53 1022 30.18 851 25.13 12.7 54.8 45 1 33.9 -88.8 -3.496
23:54 1022 30.18 851 25.13 12 53.7 46 0.8 33.5 -88.7 -3.492
23:55 1022 30.18 851 25.13 11.7 53 46 0.4 32.7 -88.7 -3.492
23:56 1022 30.18 851 25.13 11.8 53.3 45 0.3 32.5 -88.7 -3.492
23:57 1022 30.18 851 25.13 12 53.6 45 0.4 32.7 -88.7 -3.492
23:58 1022 30.18 851 25.13 11.9 53.5 46 0.6 33.1 -88.8 -3.496
23:59 1022 30.18 851 25.13 11.6 52.9 47 0.7 33.3 -88.7 -3.492
24:00 1022 30.18 851 25.13 11.3 52.3 47 0.5 32.9 -88.8 -3.496